<?xml version="1.0" encoding="UTF-8" standalone="no" ?>
<gpx xmlns="http://www.topografix.com/GPX/1/1" xmlns:xsi="http://www.w3.org/2001/XMLSchema-instance" xsi:schemaLocation="http://www.topografix.com/GPX/1/1 http://www.topografix.com/GPX/1/1/gpx.xsd" version="1.1" creator="VisuGPX - https://www.visugpx.com">
  <metadata>
    <name>Allègre-les-Fumades Cyclisme</name>
    <desc><![CDATA[
]]></desc>
  </metadata>
  <trk>
    <name><![CDATA[Allègre-les-Fumades Cyclisme]]></name>
    <trkseg>
      <trkpt lat="44.188" lon="4.23002">
        <ele>145.19999694824</ele>
        <time>2020-03-10T10:09:13.000Z</time>
      </trkpt>
      <trkpt lat="44.18802" lon="4.23007">
        <ele>145.39999389648</ele>
        <time>2020-03-10T10:09:29.000Z</time>
      </trkpt>
      <trkpt lat="44.18804" lon="4.23013">
        <ele>145.60000610352</ele>
        <time>2020-03-10T10:09:31.000Z</time>
      </trkpt>
      <trkpt lat="44.18808" lon="4.23027">
        <ele>146</ele>
        <time>2020-03-10T10:09:35.000Z</time>
      </trkpt>
      <trkpt lat="44.18808" lon="4.23034">
        <ele>146</ele>
        <time>2020-03-10T10:09:37.000Z</time>
      </trkpt>
      <trkpt lat="44.18813" lon="4.23054">
        <ele>146.39999389648</ele>
        <time>2020-03-10T10:09:42.000Z</time>
      </trkpt>
      <trkpt lat="44.18816" lon="4.23057">
        <ele>146.60000610352</ele>
        <time>2020-03-10T10:09:43.000Z</time>
      </trkpt>
      <trkpt lat="44.18821" lon="4.23055">
        <ele>147.39999389648</ele>
        <time>2020-03-10T10:09:45.000Z</time>
      </trkpt>
      <trkpt lat="44.18824" lon="4.23044">
        <ele>147.80000305176</ele>
        <time>2020-03-10T10:09:48.000Z</time>
      </trkpt>
      <trkpt lat="44.18824" lon="4.23041">
        <ele>148</ele>
        <time>2020-03-10T10:09:49.000Z</time>
      </trkpt>
      <trkpt lat="44.18824" lon="4.2303">
        <ele>148</ele>
        <time>2020-03-10T10:09:52.000Z</time>
      </trkpt>
      <trkpt lat="44.18823" lon="4.2302">
        <ele>148</ele>
        <time>2020-03-10T10:09:55.000Z</time>
      </trkpt>
      <trkpt lat="44.18823" lon="4.23017">
        <ele>148</ele>
        <time>2020-03-10T10:09:56.000Z</time>
      </trkpt>
      <trkpt lat="44.18821" lon="4.23003">
        <ele>148</ele>
        <time>2020-03-10T10:10:00.000Z</time>
      </trkpt>
      <trkpt lat="44.18819" lon="4.2299">
        <ele>147.80000305176</ele>
        <time>2020-03-10T10:10:04.000Z</time>
      </trkpt>
      <trkpt lat="44.1882" lon="4.22983">
        <ele>148.19999694824</ele>
        <time>2020-03-10T10:10:06.000Z</time>
      </trkpt>
      <trkpt lat="44.1882" lon="4.22975">
        <ele>148.19999694824</ele>
        <time>2020-03-10T10:10:08.000Z</time>
      </trkpt>
      <trkpt lat="44.1882" lon="4.22959">
        <ele>148.80000305176</ele>
        <time>2020-03-10T10:10:12.000Z</time>
      </trkpt>
      <trkpt lat="44.18821" lon="4.22955">
        <ele>148.80000305176</ele>
        <time>2020-03-10T10:10:13.000Z</time>
      </trkpt>
      <trkpt lat="44.18822" lon="4.22936">
        <ele>149.80000305176</ele>
        <time>2020-03-10T10:10:18.000Z</time>
      </trkpt>
      <trkpt lat="44.18827" lon="4.22913">
        <ele>151.19999694824</ele>
        <time>2020-03-10T10:10:24.000Z</time>
      </trkpt>
      <trkpt lat="44.18827" lon="4.22909">
        <ele>151.39999389648</ele>
        <time>2020-03-10T10:10:25.000Z</time>
      </trkpt>
      <trkpt lat="44.18826" lon="4.22893">
        <ele>152.80000305176</ele>
        <time>2020-03-10T10:10:29.000Z</time>
      </trkpt>
      <trkpt lat="44.18824" lon="4.2288">
        <ele>153.60000610352</ele>
        <time>2020-03-10T10:10:32.000Z</time>
      </trkpt>
      <trkpt lat="44.18822" lon="4.22871">
        <ele>154.19999694824</ele>
        <time>2020-03-10T10:10:34.000Z</time>
      </trkpt>
      <trkpt lat="44.18817" lon="4.22845">
        <ele>155.60000610352</ele>
        <time>2020-03-10T10:10:40.000Z</time>
      </trkpt>
      <trkpt lat="44.18813" lon="4.22818">
        <ele>157.39999389648</ele>
        <time>2020-03-10T10:10:47.000Z</time>
      </trkpt>
      <trkpt lat="44.18812" lon="4.22814">
        <ele>157.60000610352</ele>
        <time>2020-03-10T10:10:48.000Z</time>
      </trkpt>
      <trkpt lat="44.18809" lon="4.22799">
        <ele>158.39999389648</ele>
        <time>2020-03-10T10:10:52.000Z</time>
      </trkpt>
      <trkpt lat="44.18807" lon="4.22787">
        <ele>159.19999694824</ele>
        <time>2020-03-10T10:10:55.000Z</time>
      </trkpt>
      <trkpt lat="44.18806" lon="4.2278">
        <ele>159.80000305176</ele>
        <time>2020-03-10T10:10:57.000Z</time>
      </trkpt>
      <trkpt lat="44.18804" lon="4.22773">
        <ele>160.39999389648</ele>
        <time>2020-03-10T10:10:59.000Z</time>
      </trkpt>
      <trkpt lat="44.188" lon="4.22759">
        <ele>161.39999389648</ele>
        <time>2020-03-10T10:11:03.000Z</time>
      </trkpt>
      <trkpt lat="44.18798" lon="4.22745">
        <ele>162.80000305176</ele>
        <time>2020-03-10T10:11:07.000Z</time>
      </trkpt>
      <trkpt lat="44.18796" lon="4.22737">
        <ele>163.39999389648</ele>
        <time>2020-03-10T10:11:09.000Z</time>
      </trkpt>
      <trkpt lat="44.18793" lon="4.22725">
        <ele>164.19999694824</ele>
        <time>2020-03-10T10:11:12.000Z</time>
      </trkpt>
      <trkpt lat="44.18789" lon="4.22707">
        <ele>165.80000305176</ele>
        <time>2020-03-10T10:11:16.000Z</time>
      </trkpt>
      <trkpt lat="44.18788" lon="4.22703">
        <ele>166</ele>
        <time>2020-03-10T10:11:17.000Z</time>
      </trkpt>
      <trkpt lat="44.18784" lon="4.22683">
        <ele>166.19999694824</ele>
        <time>2020-03-10T10:11:22.000Z</time>
      </trkpt>
      <trkpt lat="44.18778" lon="4.22665">
        <ele>166</ele>
        <time>2020-03-10T10:11:27.000Z</time>
      </trkpt>
      <trkpt lat="44.18777" lon="4.2266">
        <ele>166.19999694824</ele>
        <time>2020-03-10T10:11:28.000Z</time>
      </trkpt>
      <trkpt lat="44.18774" lon="4.22649">
        <ele>166.60000610352</ele>
        <time>2020-03-10T10:11:31.000Z</time>
      </trkpt>
      <trkpt lat="44.18771" lon="4.22637">
        <ele>166.80000305176</ele>
        <time>2020-03-10T10:11:34.000Z</time>
      </trkpt>
      <trkpt lat="44.1877" lon="4.22633">
        <ele>167</ele>
        <time>2020-03-10T10:11:35.000Z</time>
      </trkpt>
      <trkpt lat="44.18765" lon="4.22616">
        <ele>167.39999389648</ele>
        <time>2020-03-10T10:11:39.000Z</time>
      </trkpt>
      <trkpt lat="44.18756" lon="4.22592">
        <ele>168</ele>
        <time>2020-03-10T10:11:45.000Z</time>
      </trkpt>
      <trkpt lat="44.18753" lon="4.22571">
        <ele>168.39999389648</ele>
        <time>2020-03-10T10:11:49.000Z</time>
      </trkpt>
      <trkpt lat="44.18753" lon="4.22566">
        <ele>168.60000610352</ele>
        <time>2020-03-10T10:11:50.000Z</time>
      </trkpt>
      <trkpt lat="44.18749" lon="4.22522">
        <ele>169.19999694824</ele>
        <time>2020-03-10T10:11:58.000Z</time>
      </trkpt>
      <trkpt lat="44.18756" lon="4.22509">
        <ele>169.19999694824</ele>
        <time>2020-03-10T10:12:02.000Z</time>
      </trkpt>
      <trkpt lat="44.18761" lon="4.22513">
        <ele>169.39999389648</ele>
        <time>2020-03-10T10:12:04.000Z</time>
      </trkpt>
      <trkpt lat="44.18764" lon="4.22517">
        <ele>169.60000610352</ele>
        <time>2020-03-10T10:12:05.000Z</time>
      </trkpt>
      <trkpt lat="44.18766" lon="4.22521">
        <ele>169.60000610352</ele>
        <time>2020-03-10T10:12:06.000Z</time>
      </trkpt>
      <trkpt lat="44.18771" lon="4.22528">
        <ele>169.80000305176</ele>
        <time>2020-03-10T10:12:08.000Z</time>
      </trkpt>
      <trkpt lat="44.18779" lon="4.22533">
        <ele>170</ele>
        <time>2020-03-10T10:12:11.000Z</time>
      </trkpt>
      <trkpt lat="44.18787" lon="4.22537">
        <ele>170.39999389648</ele>
        <time>2020-03-10T10:12:14.000Z</time>
      </trkpt>
      <trkpt lat="44.18793" lon="4.22538">
        <ele>170.80000305176</ele>
        <time>2020-03-10T10:12:16.000Z</time>
      </trkpt>
      <trkpt lat="44.18796" lon="4.22538">
        <ele>170.80000305176</ele>
        <time>2020-03-10T10:12:17.000Z</time>
      </trkpt>
      <trkpt lat="44.18799" lon="4.22536">
        <ele>171</ele>
        <time>2020-03-10T10:12:18.000Z</time>
      </trkpt>
      <trkpt lat="44.18802" lon="4.22533">
        <ele>171.19999694824</ele>
        <time>2020-03-10T10:12:19.000Z</time>
      </trkpt>
      <trkpt lat="44.18807" lon="4.22527">
        <ele>171.39999389648</ele>
        <time>2020-03-10T10:12:21.000Z</time>
      </trkpt>
      <trkpt lat="44.18818" lon="4.22517">
        <ele>172</ele>
        <time>2020-03-10T10:12:25.000Z</time>
      </trkpt>
      <trkpt lat="44.18825" lon="4.22509">
        <ele>172.19999694824</ele>
        <time>2020-03-10T10:12:27.000Z</time>
      </trkpt>
      <trkpt lat="44.18836" lon="4.22494">
        <ele>172.39999389648</ele>
        <time>2020-03-10T10:12:31.000Z</time>
      </trkpt>
      <trkpt lat="44.18855" lon="4.22477">
        <ele>172</ele>
        <time>2020-03-10T10:12:38.000Z</time>
      </trkpt>
      <trkpt lat="44.18868" lon="4.22472">
        <ele>171.80000305176</ele>
        <time>2020-03-10T10:13:39.000Z</time>
      </trkpt>
      <trkpt lat="44.1888" lon="4.22468">
        <ele>171.19999694824</ele>
        <time>2020-03-10T10:13:43.000Z</time>
      </trkpt>
      <trkpt lat="44.18894" lon="4.22449">
        <ele>169.60000610352</ele>
        <time>2020-03-10T10:13:47.000Z</time>
      </trkpt>
      <trkpt lat="44.189" lon="4.22436">
        <ele>168.39999389648</ele>
        <time>2020-03-10T10:13:49.000Z</time>
      </trkpt>
      <trkpt lat="44.18903" lon="4.22429">
        <ele>167.80000305176</ele>
        <time>2020-03-10T10:13:50.000Z</time>
      </trkpt>
      <trkpt lat="44.18905" lon="4.22415">
        <ele>166.60000610352</ele>
        <time>2020-03-10T10:13:52.000Z</time>
      </trkpt>
      <trkpt lat="44.18898" lon="4.22399">
        <ele>165.80000305176</ele>
        <time>2020-03-10T10:13:55.000Z</time>
      </trkpt>
      <trkpt lat="44.18901" lon="4.2238">
        <ele>164.19999694824</ele>
        <time>2020-03-10T10:13:58.000Z</time>
      </trkpt>
      <trkpt lat="44.18908" lon="4.22366">
        <ele>162.60000610352</ele>
        <time>2020-03-10T10:14:00.000Z</time>
      </trkpt>
      <trkpt lat="44.18912" lon="4.22357">
        <ele>161.60000610352</ele>
        <time>2020-03-10T10:14:01.000Z</time>
      </trkpt>
      <trkpt lat="44.18915" lon="4.22349">
        <ele>160.60000610352</ele>
        <time>2020-03-10T10:14:02.000Z</time>
      </trkpt>
      <trkpt lat="44.18919" lon="4.22334">
        <ele>158.80000305176</ele>
        <time>2020-03-10T10:14:04.000Z</time>
      </trkpt>
      <trkpt lat="44.18921" lon="4.22328">
        <ele>157.80000305176</ele>
        <time>2020-03-10T10:14:05.000Z</time>
      </trkpt>
      <trkpt lat="44.18925" lon="4.22324">
        <ele>157.19999694824</ele>
        <time>2020-03-10T10:14:06.000Z</time>
      </trkpt>
      <trkpt lat="44.18935" lon="4.2232">
        <ele>155.80000305176</ele>
        <time>2020-03-10T10:14:08.000Z</time>
      </trkpt>
      <trkpt lat="44.18947" lon="4.22318">
        <ele>154.60000610352</ele>
        <time>2020-03-10T10:14:10.000Z</time>
      </trkpt>
      <trkpt lat="44.1896" lon="4.22322">
        <ele>153.60000610352</ele>
        <time>2020-03-10T10:14:12.000Z</time>
      </trkpt>
      <trkpt lat="44.18965" lon="4.22322">
        <ele>153</ele>
        <time>2020-03-10T10:14:13.000Z</time>
      </trkpt>
      <trkpt lat="44.1897" lon="4.22319">
        <ele>152</ele>
        <time>2020-03-10T10:14:14.000Z</time>
      </trkpt>
      <trkpt lat="44.18979" lon="4.22317">
        <ele>151</ele>
        <time>2020-03-10T10:14:16.000Z</time>
      </trkpt>
      <trkpt lat="44.18983" lon="4.2232">
        <ele>150.80000305176</ele>
        <time>2020-03-10T10:14:17.000Z</time>
      </trkpt>
      <trkpt lat="44.18988" lon="4.22322">
        <ele>150.60000610352</ele>
        <time>2020-03-10T10:14:18.000Z</time>
      </trkpt>
      <trkpt lat="44.19" lon="4.22321">
        <ele>149.80000305176</ele>
        <time>2020-03-10T10:14:20.000Z</time>
      </trkpt>
      <trkpt lat="44.19012" lon="4.22316">
        <ele>148.60000610352</ele>
        <time>2020-03-10T10:14:22.000Z</time>
      </trkpt>
      <trkpt lat="44.19019" lon="4.22318">
        <ele>148.39999389648</ele>
        <time>2020-03-10T10:14:23.000Z</time>
      </trkpt>
      <trkpt lat="44.19026" lon="4.22323">
        <ele>148.39999389648</ele>
        <time>2020-03-10T10:14:24.000Z</time>
      </trkpt>
      <trkpt lat="44.19032" lon="4.22328">
        <ele>148.19999694824</ele>
        <time>2020-03-10T10:14:25.000Z</time>
      </trkpt>
      <trkpt lat="44.19037" lon="4.22333">
        <ele>148.19999694824</ele>
        <time>2020-03-10T10:14:26.000Z</time>
      </trkpt>
      <trkpt lat="44.19043" lon="4.22338">
        <ele>148.19999694824</ele>
        <time>2020-03-10T10:14:27.000Z</time>
      </trkpt>
      <trkpt lat="44.19048" lon="4.22344">
        <ele>148.19999694824</ele>
        <time>2020-03-10T10:14:28.000Z</time>
      </trkpt>
      <trkpt lat="44.19057" lon="4.22355">
        <ele>148.39999389648</ele>
        <time>2020-03-10T10:14:30.000Z</time>
      </trkpt>
      <trkpt lat="44.19062" lon="4.2236">
        <ele>148.39999389648</ele>
        <time>2020-03-10T10:14:31.000Z</time>
      </trkpt>
      <trkpt lat="44.19074" lon="4.22377">
        <ele>148.19999694824</ele>
        <time>2020-03-10T10:14:34.000Z</time>
      </trkpt>
      <trkpt lat="44.19082" lon="4.22386">
        <ele>148</ele>
        <time>2020-03-10T10:14:36.000Z</time>
      </trkpt>
      <trkpt lat="44.19086" lon="4.22392">
        <ele>148</ele>
        <time>2020-03-10T10:14:37.000Z</time>
      </trkpt>
      <trkpt lat="44.19092" lon="4.22403">
        <ele>147.80000305176</ele>
        <time>2020-03-10T10:14:39.000Z</time>
      </trkpt>
      <trkpt lat="44.191" lon="4.22425">
        <ele>148</ele>
        <time>2020-03-10T10:14:42.000Z</time>
      </trkpt>
      <trkpt lat="44.19102" lon="4.22433">
        <ele>148.19999694824</ele>
        <time>2020-03-10T10:14:43.000Z</time>
      </trkpt>
      <trkpt lat="44.19112" lon="4.22477">
        <ele>149.19999694824</ele>
        <time>2020-03-10T10:14:48.000Z</time>
      </trkpt>
      <trkpt lat="44.19114" lon="4.22486">
        <ele>149.19999694824</ele>
        <time>2020-03-10T10:14:49.000Z</time>
      </trkpt>
      <trkpt lat="44.19122" lon="4.22501">
        <ele>149.19999694824</ele>
        <time>2020-03-10T10:14:51.000Z</time>
      </trkpt>
      <trkpt lat="44.19137" lon="4.22518">
        <ele>148.39999389648</ele>
        <time>2020-03-10T10:14:54.000Z</time>
      </trkpt>
      <trkpt lat="44.19142" lon="4.22523">
        <ele>148.19999694824</ele>
        <time>2020-03-10T10:14:55.000Z</time>
      </trkpt>
      <trkpt lat="44.19154" lon="4.22532">
        <ele>147.39999389648</ele>
        <time>2020-03-10T10:14:57.000Z</time>
      </trkpt>
      <trkpt lat="44.1916" lon="4.22536">
        <ele>147</ele>
        <time>2020-03-10T10:14:58.000Z</time>
      </trkpt>
      <trkpt lat="44.19172" lon="4.22545">
        <ele>145.80000305176</ele>
        <time>2020-03-10T10:15:00.000Z</time>
      </trkpt>
      <trkpt lat="44.19191" lon="4.22563">
        <ele>144.39999389648</ele>
        <time>2020-03-10T10:15:03.000Z</time>
      </trkpt>
      <trkpt lat="44.19201" lon="4.22576">
        <ele>143.60000610352</ele>
        <time>2020-03-10T10:15:05.000Z</time>
      </trkpt>
      <trkpt lat="44.19206" lon="4.22582">
        <ele>143.39999389648</ele>
        <time>2020-03-10T10:15:06.000Z</time>
      </trkpt>
      <trkpt lat="44.19209" lon="4.22597">
        <ele>143.39999389648</ele>
        <time>2020-03-10T10:15:08.000Z</time>
      </trkpt>
      <trkpt lat="44.19209" lon="4.22624">
        <ele>144</ele>
        <time>2020-03-10T10:15:13.000Z</time>
      </trkpt>
      <trkpt lat="44.19207" lon="4.22632">
        <ele>144.39999389648</ele>
        <time>2020-03-10T10:15:15.000Z</time>
      </trkpt>
      <trkpt lat="44.19209" lon="4.22639">
        <ele>144.80000305176</ele>
        <time>2020-03-10T10:15:17.000Z</time>
      </trkpt>
      <trkpt lat="44.1921" lon="4.22643">
        <ele>145</ele>
        <time>2020-03-10T10:15:18.000Z</time>
      </trkpt>
      <trkpt lat="44.19211" lon="4.22656">
        <ele>145.60000610352</ele>
        <time>2020-03-10T10:15:21.000Z</time>
      </trkpt>
      <trkpt lat="44.1921" lon="4.22661">
        <ele>146</ele>
        <time>2020-03-10T10:15:22.000Z</time>
      </trkpt>
      <trkpt lat="44.1921" lon="4.22669">
        <ele>146.60000610352</ele>
        <time>2020-03-10T10:15:24.000Z</time>
      </trkpt>
      <trkpt lat="44.19213" lon="4.22677">
        <ele>146.80000305176</ele>
        <time>2020-03-10T10:15:26.000Z</time>
      </trkpt>
      <trkpt lat="44.19217" lon="4.22686">
        <ele>147</ele>
        <time>2020-03-10T10:15:28.000Z</time>
      </trkpt>
      <trkpt lat="44.19218" lon="4.22698">
        <ele>147.80000305176</ele>
        <time>2020-03-10T10:15:31.000Z</time>
      </trkpt>
      <trkpt lat="44.19217" lon="4.227">
        <ele>148</ele>
        <time>2020-03-10T10:15:32.000Z</time>
      </trkpt>
      <trkpt lat="44.19211" lon="4.22708">
        <ele>148.80000305176</ele>
        <time>2020-03-10T10:15:35.000Z</time>
      </trkpt>
      <trkpt lat="44.19209" lon="4.22711">
        <ele>149</ele>
        <time>2020-03-10T10:15:36.000Z</time>
      </trkpt>
      <trkpt lat="44.19204" lon="4.22718">
        <ele>150.19999694824</ele>
        <time>2020-03-10T10:15:39.000Z</time>
      </trkpt>
      <trkpt lat="44.192" lon="4.22723">
        <ele>150.80000305176</ele>
        <time>2020-03-10T10:15:41.000Z</time>
      </trkpt>
      <trkpt lat="44.19198" lon="4.22726">
        <ele>151.19999694824</ele>
        <time>2020-03-10T10:15:42.000Z</time>
      </trkpt>
      <trkpt lat="44.19193" lon="4.22737">
        <ele>152.60000610352</ele>
        <time>2020-03-10T10:15:45.000Z</time>
      </trkpt>
      <trkpt lat="44.19188" lon="4.22748">
        <ele>154</ele>
        <time>2020-03-10T10:15:48.000Z</time>
      </trkpt>
      <trkpt lat="44.19184" lon="4.22758">
        <ele>155.19999694824</ele>
        <time>2020-03-10T10:15:51.000Z</time>
      </trkpt>
      <trkpt lat="44.19183" lon="4.22765">
        <ele>155.80000305176</ele>
        <time>2020-03-10T10:15:53.000Z</time>
      </trkpt>
      <trkpt lat="44.19181" lon="4.22779">
        <ele>157.60000610352</ele>
        <time>2020-03-10T10:15:56.000Z</time>
      </trkpt>
      <trkpt lat="44.19178" lon="4.22786">
        <ele>158.19999694824</ele>
        <time>2020-03-10T10:15:58.000Z</time>
      </trkpt>
      <trkpt lat="44.19177" lon="4.22797">
        <ele>159</ele>
        <time>2020-03-10T10:16:01.000Z</time>
      </trkpt>
      <trkpt lat="44.19179" lon="4.22801">
        <ele>159</ele>
        <time>2020-03-10T10:16:02.000Z</time>
      </trkpt>
      <trkpt lat="44.1918" lon="4.2281">
        <ele>159.39999389648</ele>
        <time>2020-03-10T10:16:04.000Z</time>
      </trkpt>
      <trkpt lat="44.19179" lon="4.22818">
        <ele>160.19999694824</ele>
        <time>2020-03-10T10:16:06.000Z</time>
      </trkpt>
      <trkpt lat="44.1918" lon="4.22826">
        <ele>160.39999389648</ele>
        <time>2020-03-10T10:16:08.000Z</time>
      </trkpt>
      <trkpt lat="44.19184" lon="4.22834">
        <ele>160.39999389648</ele>
        <time>2020-03-10T10:16:10.000Z</time>
      </trkpt>
      <trkpt lat="44.19201" lon="4.22849">
        <ele>159.60000610352</ele>
        <time>2020-03-10T10:16:14.000Z</time>
      </trkpt>
      <trkpt lat="44.19205" lon="4.22853">
        <ele>159.39999389648</ele>
        <time>2020-03-10T10:16:15.000Z</time>
      </trkpt>
      <trkpt lat="44.19208" lon="4.22857">
        <ele>159.19999694824</ele>
        <time>2020-03-10T10:16:16.000Z</time>
      </trkpt>
      <trkpt lat="44.19211" lon="4.22862">
        <ele>159.19999694824</ele>
        <time>2020-03-10T10:16:17.000Z</time>
      </trkpt>
      <trkpt lat="44.19213" lon="4.22866">
        <ele>159.19999694824</ele>
        <time>2020-03-10T10:16:18.000Z</time>
      </trkpt>
      <trkpt lat="44.19216" lon="4.22869">
        <ele>159</ele>
        <time>2020-03-10T10:16:19.000Z</time>
      </trkpt>
      <trkpt lat="44.19218" lon="4.22873">
        <ele>159</ele>
        <time>2020-03-10T10:16:20.000Z</time>
      </trkpt>
      <trkpt lat="44.19218" lon="4.22878">
        <ele>159.19999694824</ele>
        <time>2020-03-10T10:16:21.000Z</time>
      </trkpt>
      <trkpt lat="44.19218" lon="4.22888">
        <ele>159.39999389648</ele>
        <time>2020-03-10T10:16:24.000Z</time>
      </trkpt>
      <trkpt lat="44.19214" lon="4.2289">
        <ele>160</ele>
        <time>2020-03-10T10:16:27.000Z</time>
      </trkpt>
      <trkpt lat="44.19214" lon="4.22893">
        <ele>160.19999694824</ele>
        <time>2020-03-10T10:16:28.000Z</time>
      </trkpt>
      <trkpt lat="44.1921" lon="4.22895">
        <ele>160.80000305176</ele>
        <time>2020-03-10T10:16:31.000Z</time>
      </trkpt>
      <trkpt lat="44.19206" lon="4.22893">
        <ele>161.19999694824</ele>
        <time>2020-03-10T10:16:33.000Z</time>
      </trkpt>
      <trkpt lat="44.192" lon="4.22889">
        <ele>161.60000610352</ele>
        <time>2020-03-10T10:16:35.000Z</time>
      </trkpt>
      <trkpt lat="44.19198" lon="4.22887">
        <ele>161.80000305176</ele>
        <time>2020-03-10T10:16:36.000Z</time>
      </trkpt>
      <trkpt lat="44.19186" lon="4.22876">
        <ele>162.80000305176</ele>
        <time>2020-03-10T10:16:41.000Z</time>
      </trkpt>
      <trkpt lat="44.1917" lon="4.22856">
        <ele>163.80000305176</ele>
        <time>2020-03-10T10:16:48.000Z</time>
      </trkpt>
      <trkpt lat="44.19161" lon="4.22846">
        <ele>164.19999694824</ele>
        <time>2020-03-10T10:16:52.000Z</time>
      </trkpt>
      <trkpt lat="44.19155" lon="4.22841">
        <ele>164.39999389648</ele>
        <time>2020-03-10T10:16:54.000Z</time>
      </trkpt>
      <trkpt lat="44.1915" lon="4.22837">
        <ele>164.80000305176</ele>
        <time>2020-03-10T10:16:56.000Z</time>
      </trkpt>
      <trkpt lat="44.1914" lon="4.2283">
        <ele>165.60000610352</ele>
        <time>2020-03-10T10:17:00.000Z</time>
      </trkpt>
      <trkpt lat="44.19128" lon="4.2282">
        <ele>166.39999389648</ele>
        <time>2020-03-10T10:17:05.000Z</time>
      </trkpt>
      <trkpt lat="44.19121" lon="4.22817">
        <ele>167</ele>
        <time>2020-03-10T10:17:07.000Z</time>
      </trkpt>
      <trkpt lat="44.19105" lon="4.22806">
        <ele>167.80000305176</ele>
        <time>2020-03-10T10:17:12.000Z</time>
      </trkpt>
      <trkpt lat="44.19101" lon="4.22804">
        <ele>167.80000305176</ele>
        <time>2020-03-10T10:17:13.000Z</time>
      </trkpt>
      <trkpt lat="44.19091" lon="4.22798">
        <ele>168</ele>
        <time>2020-03-10T10:17:16.000Z</time>
      </trkpt>
      <trkpt lat="44.1908" lon="4.2279">
        <ele>168.19999694824</ele>
        <time>2020-03-10T10:17:20.000Z</time>
      </trkpt>
      <trkpt lat="44.19076" lon="4.22788">
        <ele>168.39999389648</ele>
        <time>2020-03-10T10:17:21.000Z</time>
      </trkpt>
      <trkpt lat="44.19067" lon="4.22784">
        <ele>168.60000610352</ele>
        <time>2020-03-10T10:17:24.000Z</time>
      </trkpt>
      <trkpt lat="44.19063" lon="4.22781">
        <ele>168.60000610352</ele>
        <time>2020-03-10T10:17:25.000Z</time>
      </trkpt>
      <trkpt lat="44.19059" lon="4.22778">
        <ele>168.80000305176</ele>
        <time>2020-03-10T10:17:26.000Z</time>
      </trkpt>
      <trkpt lat="44.19045" lon="4.22772">
        <ele>169.80000305176</ele>
        <time>2020-03-10T10:17:29.000Z</time>
      </trkpt>
      <trkpt lat="44.19039" lon="4.22771">
        <ele>170.19999694824</ele>
        <time>2020-03-10T10:17:30.000Z</time>
      </trkpt>
      <trkpt lat="44.19024" lon="4.2277">
        <ele>171.39999389648</ele>
        <time>2020-03-10T10:17:33.000Z</time>
      </trkpt>
      <trkpt lat="44.19019" lon="4.22767">
        <ele>171.80000305176</ele>
        <time>2020-03-10T10:17:34.000Z</time>
      </trkpt>
      <trkpt lat="44.19016" lon="4.22764">
        <ele>172.19999694824</ele>
        <time>2020-03-10T10:17:35.000Z</time>
      </trkpt>
      <trkpt lat="44.19013" lon="4.22759">
        <ele>172.39999389648</ele>
        <time>2020-03-10T10:17:36.000Z</time>
      </trkpt>
      <trkpt lat="44.18998" lon="4.22741">
        <ele>173.80000305176</ele>
        <time>2020-03-10T10:17:42.000Z</time>
      </trkpt>
      <trkpt lat="44.18983" lon="4.22735">
        <ele>175.39999389648</ele>
        <time>2020-03-10T10:17:48.000Z</time>
      </trkpt>
      <trkpt lat="44.18976" lon="4.2273">
        <ele>176</ele>
        <time>2020-03-10T10:17:51.000Z</time>
      </trkpt>
      <trkpt lat="44.18971" lon="4.22728">
        <ele>176.39999389648</ele>
        <time>2020-03-10T10:17:53.000Z</time>
      </trkpt>
      <trkpt lat="44.18969" lon="4.22728">
        <ele>176.80000305176</ele>
        <time>2020-03-10T10:17:54.000Z</time>
      </trkpt>
      <trkpt lat="44.18962" lon="4.22728">
        <ele>177.39999389648</ele>
        <time>2020-03-10T10:17:56.000Z</time>
      </trkpt>
      <trkpt lat="44.18956" lon="4.22725">
        <ele>178</ele>
        <time>2020-03-10T10:17:58.000Z</time>
      </trkpt>
      <trkpt lat="44.1895" lon="4.22722">
        <ele>178.60000610352</ele>
        <time>2020-03-10T10:18:00.000Z</time>
      </trkpt>
      <trkpt lat="44.18938" lon="4.22717">
        <ele>178.80000305176</ele>
        <time>2020-03-10T10:18:04.000Z</time>
      </trkpt>
      <trkpt lat="44.18922" lon="4.22716">
        <ele>178.19999694824</ele>
        <time>2020-03-10T10:18:09.000Z</time>
      </trkpt>
      <trkpt lat="44.18916" lon="4.22719">
        <ele>178</ele>
        <time>2020-03-10T10:18:11.000Z</time>
      </trkpt>
      <trkpt lat="44.18907" lon="4.2272">
        <ele>177.60000610352</ele>
        <time>2020-03-10T10:18:14.000Z</time>
      </trkpt>
      <trkpt lat="44.18898" lon="4.2272">
        <ele>177.39999389648</ele>
        <time>2020-03-10T10:18:17.000Z</time>
      </trkpt>
      <trkpt lat="44.18888" lon="4.22724">
        <ele>176.80000305176</ele>
        <time>2020-03-10T10:18:21.000Z</time>
      </trkpt>
      <trkpt lat="44.18891" lon="4.22735">
        <ele>176.60000610352</ele>
        <time>2020-03-10T10:18:24.000Z</time>
      </trkpt>
      <trkpt lat="44.18892" lon="4.22744">
        <ele>176.19999694824</ele>
        <time>2020-03-10T10:18:26.000Z</time>
      </trkpt>
      <trkpt lat="44.18891" lon="4.22758">
        <ele>175.60000610352</ele>
        <time>2020-03-10T10:18:29.000Z</time>
      </trkpt>
      <trkpt lat="44.18893" lon="4.22779">
        <ele>174.60000610352</ele>
        <time>2020-03-10T10:18:33.000Z</time>
      </trkpt>
      <trkpt lat="44.18894" lon="4.22785">
        <ele>174.80000305176</ele>
        <time>2020-03-10T10:18:34.000Z</time>
      </trkpt>
      <trkpt lat="44.18907" lon="4.22825">
        <ele>175.80000305176</ele>
        <time>2020-03-10T10:18:41.000Z</time>
      </trkpt>
      <trkpt lat="44.18908" lon="4.2283">
        <ele>175.19999694824</ele>
        <time>2020-03-10T10:18:42.000Z</time>
      </trkpt>
      <trkpt lat="44.18914" lon="4.22858">
        <ele>173.60000610352</ele>
        <time>2020-03-10T10:18:47.000Z</time>
      </trkpt>
      <trkpt lat="44.18914" lon="4.22879">
        <ele>173.19999694824</ele>
        <time>2020-03-10T10:18:51.000Z</time>
      </trkpt>
      <trkpt lat="44.18915" lon="4.22889">
        <ele>173.60000610352</ele>
        <time>2020-03-10T10:18:53.000Z</time>
      </trkpt>
      <trkpt lat="44.18919" lon="4.22895">
        <ele>174.39999389648</ele>
        <time>2020-03-10T10:18:55.000Z</time>
      </trkpt>
      <trkpt lat="44.18925" lon="4.22905">
        <ele>175.60000610352</ele>
        <time>2020-03-10T10:18:58.000Z</time>
      </trkpt>
      <trkpt lat="44.18924" lon="4.22909">
        <ele>175.60000610352</ele>
        <time>2020-03-10T10:18:59.000Z</time>
      </trkpt>
      <trkpt lat="44.18925" lon="4.22917">
        <ele>175.80000305176</ele>
        <time>2020-03-10T10:19:01.000Z</time>
      </trkpt>
      <trkpt lat="44.18926" lon="4.22926">
        <ele>176.19999694824</ele>
        <time>2020-03-10T10:19:03.000Z</time>
      </trkpt>
      <trkpt lat="44.18927" lon="4.22931">
        <ele>176</ele>
        <time>2020-03-10T10:19:04.000Z</time>
      </trkpt>
      <trkpt lat="44.18928" lon="4.22936">
        <ele>176</ele>
        <time>2020-03-10T10:19:05.000Z</time>
      </trkpt>
      <trkpt lat="44.18932" lon="4.22953">
        <ele>175.80000305176</ele>
        <time>2020-03-10T10:19:08.000Z</time>
      </trkpt>
      <trkpt lat="44.18933" lon="4.22958">
        <ele>176</ele>
        <time>2020-03-10T10:19:09.000Z</time>
      </trkpt>
      <trkpt lat="44.18937" lon="4.22971">
        <ele>176.80000305176</ele>
        <time>2020-03-10T10:19:11.000Z</time>
      </trkpt>
      <trkpt lat="44.18942" lon="4.22984">
        <ele>177.80000305176</ele>
        <time>2020-03-10T10:19:13.000Z</time>
      </trkpt>
      <trkpt lat="44.18946" lon="4.23005">
        <ele>178</ele>
        <time>2020-03-10T10:19:16.000Z</time>
      </trkpt>
      <trkpt lat="44.18946" lon="4.23012">
        <ele>177.80000305176</ele>
        <time>2020-03-10T10:19:17.000Z</time>
      </trkpt>
      <trkpt lat="44.18948" lon="4.23031">
        <ele>177.39999389648</ele>
        <time>2020-03-10T10:19:20.000Z</time>
      </trkpt>
      <trkpt lat="44.18951" lon="4.23041">
        <ele>177.80000305176</ele>
        <time>2020-03-10T10:19:22.000Z</time>
      </trkpt>
      <trkpt lat="44.18953" lon="4.23056">
        <ele>177.80000305176</ele>
        <time>2020-03-10T10:19:25.000Z</time>
      </trkpt>
      <trkpt lat="44.18955" lon="4.2306">
        <ele>178</ele>
        <time>2020-03-10T10:19:26.000Z</time>
      </trkpt>
      <trkpt lat="44.18955" lon="4.23073">
        <ele>178</ele>
        <time>2020-03-10T10:19:29.000Z</time>
      </trkpt>
      <trkpt lat="44.18956" lon="4.23077">
        <ele>178</ele>
        <time>2020-03-10T10:19:30.000Z</time>
      </trkpt>
      <trkpt lat="44.18961" lon="4.23084">
        <ele>178.80000305176</ele>
        <time>2020-03-10T10:19:32.000Z</time>
      </trkpt>
      <trkpt lat="44.18965" lon="4.23092">
        <ele>179.19999694824</ele>
        <time>2020-03-10T10:19:34.000Z</time>
      </trkpt>
      <trkpt lat="44.18964" lon="4.23101">
        <ele>179</ele>
        <time>2020-03-10T10:19:36.000Z</time>
      </trkpt>
      <trkpt lat="44.18964" lon="4.23105">
        <ele>178.80000305176</ele>
        <time>2020-03-10T10:19:37.000Z</time>
      </trkpt>
      <trkpt lat="44.18965" lon="4.23117">
        <ele>178.80000305176</ele>
        <time>2020-03-10T10:19:40.000Z</time>
      </trkpt>
      <trkpt lat="44.18966" lon="4.23122">
        <ele>178.80000305176</ele>
        <time>2020-03-10T10:19:41.000Z</time>
      </trkpt>
      <trkpt lat="44.18971" lon="4.23128">
        <ele>179.60000610352</ele>
        <time>2020-03-10T10:19:43.000Z</time>
      </trkpt>
      <trkpt lat="44.18974" lon="4.23131">
        <ele>180</ele>
        <time>2020-03-10T10:19:44.000Z</time>
      </trkpt>
      <trkpt lat="44.18979" lon="4.23145">
        <ele>180.39999389648</ele>
        <time>2020-03-10T10:19:47.000Z</time>
      </trkpt>
      <trkpt lat="44.1898" lon="4.2315">
        <ele>180.60000610352</ele>
        <time>2020-03-10T10:19:48.000Z</time>
      </trkpt>
      <trkpt lat="44.18986" lon="4.23164">
        <ele>181.19999694824</ele>
        <time>2020-03-10T10:19:51.000Z</time>
      </trkpt>
      <trkpt lat="44.18991" lon="4.23173">
        <ele>181.80000305176</ele>
        <time>2020-03-10T10:19:53.000Z</time>
      </trkpt>
      <trkpt lat="44.18998" lon="4.23183">
        <ele>182.60000610352</ele>
        <time>2020-03-10T10:19:55.000Z</time>
      </trkpt>
      <trkpt lat="44.19007" lon="4.23207">
        <ele>182.80000305176</ele>
        <time>2020-03-10T10:19:59.000Z</time>
      </trkpt>
      <trkpt lat="44.19012" lon="4.23208">
        <ele>183.60000610352</ele>
        <time>2020-03-10T10:20:00.000Z</time>
      </trkpt>
      <trkpt lat="44.19023" lon="4.23206">
        <ele>185.39999389648</ele>
        <time>2020-03-10T10:20:02.000Z</time>
      </trkpt>
      <trkpt lat="44.19029" lon="4.23204">
        <ele>186.39999389648</ele>
        <time>2020-03-10T10:20:03.000Z</time>
      </trkpt>
      <trkpt lat="44.19036" lon="4.23203">
        <ele>185.80000305176</ele>
        <time>2020-03-10T10:20:04.000Z</time>
      </trkpt>
      <trkpt lat="44.19043" lon="4.23203">
        <ele>185.19999694824</ele>
        <time>2020-03-10T10:20:05.000Z</time>
      </trkpt>
      <trkpt lat="44.1905" lon="4.23204">
        <ele>184.60000610352</ele>
        <time>2020-03-10T10:20:06.000Z</time>
      </trkpt>
      <trkpt lat="44.19063" lon="4.23202">
        <ele>183.60000610352</ele>
        <time>2020-03-10T10:20:08.000Z</time>
      </trkpt>
      <trkpt lat="44.19069" lon="4.23204">
        <ele>183</ele>
        <time>2020-03-10T10:20:09.000Z</time>
      </trkpt>
      <trkpt lat="44.19074" lon="4.23203">
        <ele>182.60000610352</ele>
        <time>2020-03-10T10:20:10.000Z</time>
      </trkpt>
      <trkpt lat="44.19085" lon="4.23199">
        <ele>182</ele>
        <time>2020-03-10T10:20:12.000Z</time>
      </trkpt>
      <trkpt lat="44.19091" lon="4.23198">
        <ele>181.60000610352</ele>
        <time>2020-03-10T10:20:13.000Z</time>
      </trkpt>
      <trkpt lat="44.19097" lon="4.23197">
        <ele>181.19999694824</ele>
        <time>2020-03-10T10:20:14.000Z</time>
      </trkpt>
      <trkpt lat="44.19102" lon="4.23194">
        <ele>180.80000305176</ele>
        <time>2020-03-10T10:20:15.000Z</time>
      </trkpt>
      <trkpt lat="44.19108" lon="4.23191">
        <ele>180.39999389648</ele>
        <time>2020-03-10T10:20:16.000Z</time>
      </trkpt>
      <trkpt lat="44.19113" lon="4.23189">
        <ele>179.60000610352</ele>
        <time>2020-03-10T10:20:17.000Z</time>
      </trkpt>
      <trkpt lat="44.19119" lon="4.23187">
        <ele>178.60000610352</ele>
        <time>2020-03-10T10:20:18.000Z</time>
      </trkpt>
      <trkpt lat="44.19125" lon="4.23185">
        <ele>177.60000610352</ele>
        <time>2020-03-10T10:20:19.000Z</time>
      </trkpt>
      <trkpt lat="44.1913" lon="4.23181">
        <ele>176.60000610352</ele>
        <time>2020-03-10T10:20:20.000Z</time>
      </trkpt>
      <trkpt lat="44.19135" lon="4.23177">
        <ele>175.60000610352</ele>
        <time>2020-03-10T10:20:21.000Z</time>
      </trkpt>
      <trkpt lat="44.19146" lon="4.23173">
        <ele>173.60000610352</ele>
        <time>2020-03-10T10:20:23.000Z</time>
      </trkpt>
      <trkpt lat="44.19151" lon="4.2317">
        <ele>172.60000610352</ele>
        <time>2020-03-10T10:20:24.000Z</time>
      </trkpt>
      <trkpt lat="44.19156" lon="4.23168">
        <ele>171.80000305176</ele>
        <time>2020-03-10T10:20:25.000Z</time>
      </trkpt>
      <trkpt lat="44.19167" lon="4.23167">
        <ele>169.80000305176</ele>
        <time>2020-03-10T10:20:27.000Z</time>
      </trkpt>
      <trkpt lat="44.19172" lon="4.23166">
        <ele>169</ele>
        <time>2020-03-10T10:20:28.000Z</time>
      </trkpt>
      <trkpt lat="44.19178" lon="4.23165">
        <ele>168</ele>
        <time>2020-03-10T10:20:29.000Z</time>
      </trkpt>
      <trkpt lat="44.19184" lon="4.23166">
        <ele>167.19999694824</ele>
        <time>2020-03-10T10:20:30.000Z</time>
      </trkpt>
      <trkpt lat="44.1919" lon="4.23169">
        <ele>166.39999389648</ele>
        <time>2020-03-10T10:20:31.000Z</time>
      </trkpt>
      <trkpt lat="44.19203" lon="4.2317">
        <ele>164.60000610352</ele>
        <time>2020-03-10T10:20:33.000Z</time>
      </trkpt>
      <trkpt lat="44.19209" lon="4.23169">
        <ele>163.80000305176</ele>
        <time>2020-03-10T10:20:34.000Z</time>
      </trkpt>
      <trkpt lat="44.19215" lon="4.23168">
        <ele>163</ele>
        <time>2020-03-10T10:20:35.000Z</time>
      </trkpt>
      <trkpt lat="44.19228" lon="4.23163">
        <ele>161.39999389648</ele>
        <time>2020-03-10T10:20:37.000Z</time>
      </trkpt>
      <trkpt lat="44.19241" lon="4.23163">
        <ele>159.80000305176</ele>
        <time>2020-03-10T10:20:39.000Z</time>
      </trkpt>
      <trkpt lat="44.19246" lon="4.23167">
        <ele>158.80000305176</ele>
        <time>2020-03-10T10:20:40.000Z</time>
      </trkpt>
      <trkpt lat="44.19252" lon="4.23168">
        <ele>158.19999694824</ele>
        <time>2020-03-10T10:20:41.000Z</time>
      </trkpt>
      <trkpt lat="44.19256" lon="4.23167">
        <ele>157.39999389648</ele>
        <time>2020-03-10T10:20:42.000Z</time>
      </trkpt>
      <trkpt lat="44.19261" lon="4.23167">
        <ele>156.80000305176</ele>
        <time>2020-03-10T10:20:43.000Z</time>
      </trkpt>
      <trkpt lat="44.19266" lon="4.23169">
        <ele>156</ele>
        <time>2020-03-10T10:20:45.000Z</time>
      </trkpt>
      <trkpt lat="44.19268" lon="4.23172">
        <ele>155.80000305176</ele>
        <time>2020-03-10T10:20:46.000Z</time>
      </trkpt>
      <trkpt lat="44.1927" lon="4.23175">
        <ele>155.39999389648</ele>
        <time>2020-03-10T10:20:47.000Z</time>
      </trkpt>
      <trkpt lat="44.19272" lon="4.23178">
        <ele>155.19999694824</ele>
        <time>2020-03-10T10:20:48.000Z</time>
      </trkpt>
      <trkpt lat="44.1928" lon="4.2319">
        <ele>154</ele>
        <time>2020-03-10T10:20:51.000Z</time>
      </trkpt>
      <trkpt lat="44.19283" lon="4.23193">
        <ele>153.80000305176</ele>
        <time>2020-03-10T10:20:52.000Z</time>
      </trkpt>
      <trkpt lat="44.1929" lon="4.23197">
        <ele>153.60000610352</ele>
        <time>2020-03-10T10:20:55.000Z</time>
      </trkpt>
      <trkpt lat="44.19292" lon="4.23198">
        <ele>153.60000610352</ele>
        <time>2020-03-10T10:20:56.000Z</time>
      </trkpt>
      <trkpt lat="44.19296" lon="4.23199">
        <ele>153.39999389648</ele>
        <time>2020-03-10T10:20:58.000Z</time>
      </trkpt>
      <trkpt lat="44.19299" lon="4.23197">
        <ele>153.19999694824</ele>
        <time>2020-03-10T10:20:59.000Z</time>
      </trkpt>
      <trkpt lat="44.19303" lon="4.23191">
        <ele>153.19999694824</ele>
        <time>2020-03-10T10:21:01.000Z</time>
      </trkpt>
      <trkpt lat="44.19307" lon="4.23181">
        <ele>153.19999694824</ele>
        <time>2020-03-10T10:21:03.000Z</time>
      </trkpt>
      <trkpt lat="44.19312" lon="4.23172">
        <ele>153</ele>
        <time>2020-03-10T10:21:05.000Z</time>
      </trkpt>
      <trkpt lat="44.19315" lon="4.23168">
        <ele>153</ele>
        <time>2020-03-10T10:21:06.000Z</time>
      </trkpt>
      <trkpt lat="44.19317" lon="4.23163">
        <ele>153</ele>
        <time>2020-03-10T10:21:07.000Z</time>
      </trkpt>
      <trkpt lat="44.19334" lon="4.23136">
        <ele>151.19999694824</ele>
        <time>2020-03-10T10:21:13.000Z</time>
      </trkpt>
      <trkpt lat="44.19337" lon="4.23134">
        <ele>150.80000305176</ele>
        <time>2020-03-10T10:21:14.000Z</time>
      </trkpt>
      <trkpt lat="44.19346" lon="4.23138">
        <ele>150.19999694824</ele>
        <time>2020-03-10T10:21:16.000Z</time>
      </trkpt>
      <trkpt lat="44.19349" lon="4.2314">
        <ele>150</ele>
        <time>2020-03-10T10:21:17.000Z</time>
      </trkpt>
      <trkpt lat="44.19353" lon="4.23144">
        <ele>149.80000305176</ele>
        <time>2020-03-10T10:21:18.000Z</time>
      </trkpt>
      <trkpt lat="44.19368" lon="4.23154">
        <ele>149.80000305176</ele>
        <time>2020-03-10T10:21:22.000Z</time>
      </trkpt>
      <trkpt lat="44.19384" lon="4.23166">
        <ele>150.80000305176</ele>
        <time>2020-03-10T10:21:27.000Z</time>
      </trkpt>
      <trkpt lat="44.1939" lon="4.2317">
        <ele>151</ele>
        <time>2020-03-10T10:21:29.000Z</time>
      </trkpt>
      <trkpt lat="44.19396" lon="4.23173">
        <ele>151.39999389648</ele>
        <time>2020-03-10T10:21:31.000Z</time>
      </trkpt>
      <trkpt lat="44.19398" lon="4.23176">
        <ele>151.60000610352</ele>
        <time>2020-03-10T10:21:32.000Z</time>
      </trkpt>
      <trkpt lat="44.19399" lon="4.23179">
        <ele>151.80000305176</ele>
        <time>2020-03-10T10:21:33.000Z</time>
      </trkpt>
      <trkpt lat="44.19399" lon="4.23188">
        <ele>152</ele>
        <time>2020-03-10T10:21:35.000Z</time>
      </trkpt>
      <trkpt lat="44.19398" lon="4.23193">
        <ele>152.19999694824</ele>
        <time>2020-03-10T10:21:36.000Z</time>
      </trkpt>
      <trkpt lat="44.19396" lon="4.23207">
        <ele>153</ele>
        <time>2020-03-10T10:21:39.000Z</time>
      </trkpt>
      <trkpt lat="44.19395" lon="4.23213">
        <ele>153.39999389648</ele>
        <time>2020-03-10T10:21:40.000Z</time>
      </trkpt>
      <trkpt lat="44.19387" lon="4.23255">
        <ele>153.80000305176</ele>
        <time>2020-03-10T10:21:47.000Z</time>
      </trkpt>
      <trkpt lat="44.19378" lon="4.233">
        <ele>153.60000610352</ele>
        <time>2020-03-10T10:21:54.000Z</time>
      </trkpt>
      <trkpt lat="44.19369" lon="4.2333">
        <ele>153.19999694824</ele>
        <time>2020-03-10T10:21:59.000Z</time>
      </trkpt>
      <trkpt lat="44.19367" lon="4.23335">
        <ele>153</ele>
        <time>2020-03-10T10:22:00.000Z</time>
      </trkpt>
      <trkpt lat="44.19354" lon="4.23365">
        <ele>152.60000610352</ele>
        <time>2020-03-10T10:22:06.000Z</time>
      </trkpt>
      <trkpt lat="44.19345" lon="4.23386">
        <ele>153.39999389648</ele>
        <time>2020-03-10T10:22:11.000Z</time>
      </trkpt>
      <trkpt lat="44.19346" lon="4.23389">
        <ele>153.60000610352</ele>
        <time>2020-03-10T10:22:12.000Z</time>
      </trkpt>
      <trkpt lat="44.19354" lon="4.23397">
        <ele>154.80000305176</ele>
        <time>2020-03-10T10:22:16.000Z</time>
      </trkpt>
      <trkpt lat="44.19356" lon="4.23399">
        <ele>155.19999694824</ele>
        <time>2020-03-10T10:22:17.000Z</time>
      </trkpt>
      <trkpt lat="44.19358" lon="4.23401">
        <ele>155.39999389648</ele>
        <time>2020-03-10T10:22:18.000Z</time>
      </trkpt>
      <trkpt lat="44.19363" lon="4.23406">
        <ele>156.19999694824</ele>
        <time>2020-03-10T10:22:21.000Z</time>
      </trkpt>
      <trkpt lat="44.19369" lon="4.2341">
        <ele>157.19999694824</ele>
        <time>2020-03-10T10:22:24.000Z</time>
      </trkpt>
      <trkpt lat="44.19377" lon="4.23413">
        <ele>158</ele>
        <time>2020-03-10T10:22:27.000Z</time>
      </trkpt>
      <trkpt lat="44.19383" lon="4.23416">
        <ele>158.80000305176</ele>
        <time>2020-03-10T10:22:29.000Z</time>
      </trkpt>
      <trkpt lat="44.19385" lon="4.23418">
        <ele>159.19999694824</ele>
        <time>2020-03-10T10:22:30.000Z</time>
      </trkpt>
      <trkpt lat="44.19393" lon="4.23423">
        <ele>160.39999389648</ele>
        <time>2020-03-10T10:22:33.000Z</time>
      </trkpt>
      <trkpt lat="44.19401" lon="4.23427">
        <ele>161.39999389648</ele>
        <time>2020-03-10T10:22:36.000Z</time>
      </trkpt>
      <trkpt lat="44.1941" lon="4.23432">
        <ele>162.60000610352</ele>
        <time>2020-03-10T10:22:39.000Z</time>
      </trkpt>
      <trkpt lat="44.19416" lon="4.23437">
        <ele>163.60000610352</ele>
        <time>2020-03-10T10:22:42.000Z</time>
      </trkpt>
      <trkpt lat="44.1942" lon="4.23437">
        <ele>164</ele>
        <time>2020-03-10T10:22:44.000Z</time>
      </trkpt>
      <trkpt lat="44.19428" lon="4.23437">
        <ele>164.80000305176</ele>
        <time>2020-03-10T10:22:47.000Z</time>
      </trkpt>
      <trkpt lat="44.19442" lon="4.23439">
        <ele>166.39999389648</ele>
        <time>2020-03-10T10:22:52.000Z</time>
      </trkpt>
      <trkpt lat="44.19461" lon="4.23448">
        <ele>165.60000610352</ele>
        <time>2020-03-10T10:22:58.000Z</time>
      </trkpt>
      <trkpt lat="44.19459" lon="4.23457">
        <ele>166.39999389648</ele>
        <time>2020-03-10T10:23:01.000Z</time>
      </trkpt>
      <trkpt lat="44.19457" lon="4.23464">
        <ele>167.19999694824</ele>
        <time>2020-03-10T10:23:03.000Z</time>
      </trkpt>
      <trkpt lat="44.19457" lon="4.23475">
        <ele>168.39999389648</ele>
        <time>2020-03-10T10:23:06.000Z</time>
      </trkpt>
      <trkpt lat="44.19459" lon="4.23492">
        <ele>169.80000305176</ele>
        <time>2020-03-10T10:23:10.000Z</time>
      </trkpt>
      <trkpt lat="44.19457" lon="4.23495">
        <ele>170.19999694824</ele>
        <time>2020-03-10T10:23:11.000Z</time>
      </trkpt>
      <trkpt lat="44.19453" lon="4.23499">
        <ele>171.19999694824</ele>
        <time>2020-03-10T10:23:13.000Z</time>
      </trkpt>
      <trkpt lat="44.19449" lon="4.23504">
        <ele>172.19999694824</ele>
        <time>2020-03-10T10:23:15.000Z</time>
      </trkpt>
      <trkpt lat="44.19447" lon="4.23507">
        <ele>172.60000610352</ele>
        <time>2020-03-10T10:23:16.000Z</time>
      </trkpt>
      <trkpt lat="44.19444" lon="4.23516">
        <ele>173.60000610352</ele>
        <time>2020-03-10T10:23:19.000Z</time>
      </trkpt>
      <trkpt lat="44.19443" lon="4.2352">
        <ele>174</ele>
        <time>2020-03-10T10:23:20.000Z</time>
      </trkpt>
      <trkpt lat="44.19446" lon="4.23526">
        <ele>174.60000610352</ele>
        <time>2020-03-10T10:23:22.000Z</time>
      </trkpt>
      <trkpt lat="44.1945" lon="4.23531">
        <ele>174.60000610352</ele>
        <time>2020-03-10T10:23:24.000Z</time>
      </trkpt>
      <trkpt lat="44.19452" lon="4.23533">
        <ele>174.60000610352</ele>
        <time>2020-03-10T10:23:25.000Z</time>
      </trkpt>
      <trkpt lat="44.19458" lon="4.23535">
        <ele>174.19999694824</ele>
        <time>2020-03-10T10:23:27.000Z</time>
      </trkpt>
      <trkpt lat="44.19466" lon="4.23533">
        <ele>172.80000305176</ele>
        <time>2020-03-10T10:23:29.000Z</time>
      </trkpt>
      <trkpt lat="44.19481" lon="4.23523">
        <ele>170</ele>
        <time>2020-03-10T10:23:33.000Z</time>
      </trkpt>
      <trkpt lat="44.19487" lon="4.23515">
        <ele>168.60000610352</ele>
        <time>2020-03-10T10:23:35.000Z</time>
      </trkpt>
      <trkpt lat="44.1949" lon="4.23518">
        <ele>168.39999389648</ele>
        <time>2020-03-10T10:23:36.000Z</time>
      </trkpt>
      <trkpt lat="44.19494" lon="4.2352">
        <ele>168.19999694824</ele>
        <time>2020-03-10T10:23:37.000Z</time>
      </trkpt>
      <trkpt lat="44.19498" lon="4.2352">
        <ele>167.80000305176</ele>
        <time>2020-03-10T10:23:38.000Z</time>
      </trkpt>
      <trkpt lat="44.19501" lon="4.23517">
        <ele>167</ele>
        <time>2020-03-10T10:23:39.000Z</time>
      </trkpt>
      <trkpt lat="44.19505" lon="4.23508">
        <ele>165.80000305176</ele>
        <time>2020-03-10T10:23:41.000Z</time>
      </trkpt>
      <trkpt lat="44.19505" lon="4.23502">
        <ele>165.19999694824</ele>
        <time>2020-03-10T10:23:42.000Z</time>
      </trkpt>
      <trkpt lat="44.19505" lon="4.23496">
        <ele>164.80000305176</ele>
        <time>2020-03-10T10:23:43.000Z</time>
      </trkpt>
      <trkpt lat="44.19505" lon="4.2349">
        <ele>164.39999389648</ele>
        <time>2020-03-10T10:23:44.000Z</time>
      </trkpt>
      <trkpt lat="44.19503" lon="4.23485">
        <ele>164.19999694824</ele>
        <time>2020-03-10T10:23:45.000Z</time>
      </trkpt>
      <trkpt lat="44.19502" lon="4.23473">
        <ele>163.39999389648</ele>
        <time>2020-03-10T10:23:47.000Z</time>
      </trkpt>
      <trkpt lat="44.19501" lon="4.23462">
        <ele>162.80000305176</ele>
        <time>2020-03-10T10:23:49.000Z</time>
      </trkpt>
      <trkpt lat="44.19503" lon="4.23446">
        <ele>161.60000610352</ele>
        <time>2020-03-10T10:23:52.000Z</time>
      </trkpt>
      <trkpt lat="44.19502" lon="4.23424">
        <ele>160.60000610352</ele>
        <time>2020-03-10T10:23:56.000Z</time>
      </trkpt>
      <trkpt lat="44.19499" lon="4.23419">
        <ele>160.60000610352</ele>
        <time>2020-03-10T10:23:57.000Z</time>
      </trkpt>
      <trkpt lat="44.19497" lon="4.2341">
        <ele>160.19999694824</ele>
        <time>2020-03-10T10:23:59.000Z</time>
      </trkpt>
      <trkpt lat="44.19494" lon="4.23402">
        <ele>160</ele>
        <time>2020-03-10T10:24:01.000Z</time>
      </trkpt>
      <trkpt lat="44.1949" lon="4.2339">
        <ele>159.60000610352</ele>
        <time>2020-03-10T10:24:04.000Z</time>
      </trkpt>
      <trkpt lat="44.1949" lon="4.23382">
        <ele>159</ele>
        <time>2020-03-10T10:24:06.000Z</time>
      </trkpt>
      <trkpt lat="44.19492" lon="4.23373">
        <ele>158.19999694824</ele>
        <time>2020-03-10T10:24:09.000Z</time>
      </trkpt>
      <trkpt lat="44.19494" lon="4.23366">
        <ele>157.39999389648</ele>
        <time>2020-03-10T10:24:11.000Z</time>
      </trkpt>
      <trkpt lat="44.19493" lon="4.23347">
        <ele>156.80000305176</ele>
        <time>2020-03-10T10:24:15.000Z</time>
      </trkpt>
      <trkpt lat="44.19491" lon="4.23334">
        <ele>156.39999389648</ele>
        <time>2020-03-10T10:24:18.000Z</time>
      </trkpt>
      <trkpt lat="44.1949" lon="4.23329">
        <ele>156.39999389648</ele>
        <time>2020-03-10T10:24:19.000Z</time>
      </trkpt>
      <trkpt lat="44.19488" lon="4.23317">
        <ele>156.19999694824</ele>
        <time>2020-03-10T10:24:21.000Z</time>
      </trkpt>
      <trkpt lat="44.19489" lon="4.23309">
        <ele>156</ele>
        <time>2020-03-10T10:24:22.000Z</time>
      </trkpt>
      <trkpt lat="44.1949" lon="4.23284">
        <ele>155.19999694824</ele>
        <time>2020-03-10T10:24:25.000Z</time>
      </trkpt>
      <trkpt lat="44.19491" lon="4.23276">
        <ele>154.80000305176</ele>
        <time>2020-03-10T10:24:26.000Z</time>
      </trkpt>
      <trkpt lat="44.19492" lon="4.23262">
        <ele>153.80000305176</ele>
        <time>2020-03-10T10:24:28.000Z</time>
      </trkpt>
      <trkpt lat="44.19492" lon="4.23244">
        <ele>152.39999389648</ele>
        <time>2020-03-10T10:24:31.000Z</time>
      </trkpt>
      <trkpt lat="44.19493" lon="4.23236">
        <ele>151.60000610352</ele>
        <time>2020-03-10T10:24:33.000Z</time>
      </trkpt>
      <trkpt lat="44.19495" lon="4.23231">
        <ele>151.19999694824</ele>
        <time>2020-03-10T10:24:34.000Z</time>
      </trkpt>
      <trkpt lat="44.19505" lon="4.23226">
        <ele>149.80000305176</ele>
        <time>2020-03-10T10:24:37.000Z</time>
      </trkpt>
      <trkpt lat="44.19509" lon="4.23228">
        <ele>149.39999389648</ele>
        <time>2020-03-10T10:24:38.000Z</time>
      </trkpt>
      <trkpt lat="44.19515" lon="4.23236">
        <ele>149.39999389648</ele>
        <time>2020-03-10T10:24:40.000Z</time>
      </trkpt>
      <trkpt lat="44.19517" lon="4.23243">
        <ele>149.60000610352</ele>
        <time>2020-03-10T10:24:41.000Z</time>
      </trkpt>
      <trkpt lat="44.19519" lon="4.2325">
        <ele>149.80000305176</ele>
        <time>2020-03-10T10:24:42.000Z</time>
      </trkpt>
      <trkpt lat="44.19521" lon="4.23257">
        <ele>150.19999694824</ele>
        <time>2020-03-10T10:24:43.000Z</time>
      </trkpt>
      <trkpt lat="44.19522" lon="4.23265">
        <ele>150.60000610352</ele>
        <time>2020-03-10T10:24:44.000Z</time>
      </trkpt>
      <trkpt lat="44.19522" lon="4.23272">
        <ele>151.19999694824</ele>
        <time>2020-03-10T10:24:45.000Z</time>
      </trkpt>
      <trkpt lat="44.19523" lon="4.23278">
        <ele>151.39999389648</ele>
        <time>2020-03-10T10:24:46.000Z</time>
      </trkpt>
      <trkpt lat="44.19523" lon="4.23283">
        <ele>151.60000610352</ele>
        <time>2020-03-10T10:24:47.000Z</time>
      </trkpt>
      <trkpt lat="44.19524" lon="4.23288">
        <ele>151.60000610352</ele>
        <time>2020-03-10T10:24:48.000Z</time>
      </trkpt>
      <trkpt lat="44.19527" lon="4.23299">
        <ele>151.60000610352</ele>
        <time>2020-03-10T10:24:50.000Z</time>
      </trkpt>
      <trkpt lat="44.19528" lon="4.23305">
        <ele>151.60000610352</ele>
        <time>2020-03-10T10:24:51.000Z</time>
      </trkpt>
      <trkpt lat="44.19528" lon="4.23311">
        <ele>151.80000305176</ele>
        <time>2020-03-10T10:24:52.000Z</time>
      </trkpt>
      <trkpt lat="44.19532" lon="4.23331">
        <ele>151.39999389648</ele>
        <time>2020-03-10T10:24:55.000Z</time>
      </trkpt>
      <trkpt lat="44.19533" lon="4.23346">
        <ele>151.60000610352</ele>
        <time>2020-03-10T10:24:58.000Z</time>
      </trkpt>
      <trkpt lat="44.19539" lon="4.23374">
        <ele>151.19999694824</ele>
        <time>2020-03-10T10:25:03.000Z</time>
      </trkpt>
      <trkpt lat="44.19537" lon="4.23387">
        <ele>152.60000610352</ele>
        <time>2020-03-10T10:25:06.000Z</time>
      </trkpt>
      <trkpt lat="44.19539" lon="4.23398">
        <ele>153</ele>
        <time>2020-03-10T10:25:08.000Z</time>
      </trkpt>
      <trkpt lat="44.19539" lon="4.23409">
        <ele>153.80000305176</ele>
        <time>2020-03-10T10:25:10.000Z</time>
      </trkpt>
      <trkpt lat="44.19537" lon="4.23425">
        <ele>155.39999389648</ele>
        <time>2020-03-10T10:25:14.000Z</time>
      </trkpt>
      <trkpt lat="44.19536" lon="4.23435">
        <ele>156.39999389648</ele>
        <time>2020-03-10T10:25:17.000Z</time>
      </trkpt>
      <trkpt lat="44.19534" lon="4.23441">
        <ele>157.19999694824</ele>
        <time>2020-03-10T10:25:19.000Z</time>
      </trkpt>
      <trkpt lat="44.19534" lon="4.23444">
        <ele>157.39999389648</ele>
        <time>2020-03-10T10:25:20.000Z</time>
      </trkpt>
      <trkpt lat="44.19535" lon="4.23447">
        <ele>157.60000610352</ele>
        <time>2020-03-10T10:25:21.000Z</time>
      </trkpt>
      <trkpt lat="44.19538" lon="4.23455">
        <ele>157.19999694824</ele>
        <time>2020-03-10T10:25:23.000Z</time>
      </trkpt>
      <trkpt lat="44.1954" lon="4.23461">
        <ele>157.39999389648</ele>
        <time>2020-03-10T10:25:24.000Z</time>
      </trkpt>
      <trkpt lat="44.1954" lon="4.23467">
        <ele>157.80000305176</ele>
        <time>2020-03-10T10:25:25.000Z</time>
      </trkpt>
      <trkpt lat="44.19545" lon="4.23484">
        <ele>157.80000305176</ele>
        <time>2020-03-10T10:25:28.000Z</time>
      </trkpt>
      <trkpt lat="44.19546" lon="4.2349">
        <ele>157.80000305176</ele>
        <time>2020-03-10T10:25:29.000Z</time>
      </trkpt>
      <trkpt lat="44.1955" lon="4.23504">
        <ele>157.80000305176</ele>
        <time>2020-03-10T10:25:33.000Z</time>
      </trkpt>
      <trkpt lat="44.19558" lon="4.2352">
        <ele>157.39999389648</ele>
        <time>2020-03-10T10:25:37.000Z</time>
      </trkpt>
      <trkpt lat="44.19559" lon="4.23524">
        <ele>157.39999389648</ele>
        <time>2020-03-10T10:25:38.000Z</time>
      </trkpt>
      <trkpt lat="44.19563" lon="4.23545">
        <ele>158</ele>
        <time>2020-03-10T10:25:43.000Z</time>
      </trkpt>
      <trkpt lat="44.19565" lon="4.23549">
        <ele>158.19999694824</ele>
        <time>2020-03-10T10:25:44.000Z</time>
      </trkpt>
      <trkpt lat="44.19568" lon="4.23573">
        <ele>159.80000305176</ele>
        <time>2020-03-10T10:25:49.000Z</time>
      </trkpt>
      <trkpt lat="44.19568" lon="4.23582">
        <ele>160.60000610352</ele>
        <time>2020-03-10T10:25:51.000Z</time>
      </trkpt>
      <trkpt lat="44.19569" lon="4.23588">
        <ele>161</ele>
        <time>2020-03-10T10:25:53.000Z</time>
      </trkpt>
      <trkpt lat="44.19572" lon="4.23596">
        <ele>161.19999694824</ele>
        <time>2020-03-10T10:25:55.000Z</time>
      </trkpt>
      <trkpt lat="44.19574" lon="4.236">
        <ele>161.19999694824</ele>
        <time>2020-03-10T10:25:56.000Z</time>
      </trkpt>
      <trkpt lat="44.19575" lon="4.23609">
        <ele>161.80000305176</ele>
        <time>2020-03-10T10:25:58.000Z</time>
      </trkpt>
      <trkpt lat="44.19579" lon="4.23634">
        <ele>164</ele>
        <time>2020-03-10T10:26:03.000Z</time>
      </trkpt>
      <trkpt lat="44.19583" lon="4.23647">
        <ele>164.39999389648</ele>
        <time>2020-03-10T10:26:06.000Z</time>
      </trkpt>
      <trkpt lat="44.19585" lon="4.23652">
        <ele>164.60000610352</ele>
        <time>2020-03-10T10:26:07.000Z</time>
      </trkpt>
      <trkpt lat="44.19595" lon="4.23672">
        <ele>164.19999694824</ele>
        <time>2020-03-10T10:26:11.000Z</time>
      </trkpt>
      <trkpt lat="44.196" lon="4.23683">
        <ele>164.39999389648</ele>
        <time>2020-03-10T10:26:14.000Z</time>
      </trkpt>
      <trkpt lat="44.196" lon="4.23691">
        <ele>165</ele>
        <time>2020-03-10T10:26:16.000Z</time>
      </trkpt>
      <trkpt lat="44.19599" lon="4.23697">
        <ele>165.60000610352</ele>
        <time>2020-03-10T10:26:18.000Z</time>
      </trkpt>
      <trkpt lat="44.19604" lon="4.23713">
        <ele>165.39999389648</ele>
        <time>2020-03-10T10:26:23.000Z</time>
      </trkpt>
      <trkpt lat="44.19607" lon="4.23735">
        <ele>165.80000305176</ele>
        <time>2020-03-10T10:26:28.000Z</time>
      </trkpt>
      <trkpt lat="44.19611" lon="4.23749">
        <ele>165.80000305176</ele>
        <time>2020-03-10T10:26:32.000Z</time>
      </trkpt>
      <trkpt lat="44.19611" lon="4.23752">
        <ele>165.80000305176</ele>
        <time>2020-03-10T10:26:33.000Z</time>
      </trkpt>
      <trkpt lat="44.19612" lon="4.23759">
        <ele>165.80000305176</ele>
        <time>2020-03-10T10:26:35.000Z</time>
      </trkpt>
      <trkpt lat="44.19613" lon="4.2377">
        <ele>166</ele>
        <time>2020-03-10T10:26:38.000Z</time>
      </trkpt>
      <trkpt lat="44.19613" lon="4.23773">
        <ele>166.19999694824</ele>
        <time>2020-03-10T10:26:39.000Z</time>
      </trkpt>
      <trkpt lat="44.19613" lon="4.23779">
        <ele>166.39999389648</ele>
        <time>2020-03-10T10:26:41.000Z</time>
      </trkpt>
      <trkpt lat="44.19612" lon="4.23791">
        <ele>165.80000305176</ele>
        <time>2020-03-10T10:26:45.000Z</time>
      </trkpt>
      <trkpt lat="44.19607" lon="4.23797">
        <ele>165.60000610352</ele>
        <time>2020-03-10T10:26:48.000Z</time>
      </trkpt>
      <trkpt lat="44.19605" lon="4.23798">
        <ele>165.60000610352</ele>
        <time>2020-03-10T10:26:50.000Z</time>
      </trkpt>
      <trkpt lat="44.19604" lon="4.23798">
        <ele>165.80000305176</ele>
        <time>2020-03-10T10:26:51.000Z</time>
      </trkpt>
      <trkpt lat="44.19601" lon="4.23797">
        <ele>166</ele>
        <time>2020-03-10T10:26:53.000Z</time>
      </trkpt>
      <trkpt lat="44.19599" lon="4.23794">
        <ele>166.39999389648</ele>
        <time>2020-03-10T10:26:55.000Z</time>
      </trkpt>
      <trkpt lat="44.19596" lon="4.23787">
        <ele>167.39999389648</ele>
        <time>2020-03-10T10:26:58.000Z</time>
      </trkpt>
      <trkpt lat="44.19592" lon="4.23783">
        <ele>168</ele>
        <time>2020-03-10T10:27:01.000Z</time>
      </trkpt>
      <trkpt lat="44.19589" lon="4.23777">
        <ele>168.80000305176</ele>
        <time>2020-03-10T10:27:04.000Z</time>
      </trkpt>
      <trkpt lat="44.19588" lon="4.23771">
        <ele>169.39999389648</ele>
        <time>2020-03-10T10:27:06.000Z</time>
      </trkpt>
      <trkpt lat="44.19586" lon="4.23769">
        <ele>169.60000610352</ele>
        <time>2020-03-10T10:27:07.000Z</time>
      </trkpt>
      <trkpt lat="44.19582" lon="4.23763">
        <ele>170.39999389648</ele>
        <time>2020-03-10T10:27:10.000Z</time>
      </trkpt>
      <trkpt lat="44.19579" lon="4.2376">
        <ele>171</ele>
        <time>2020-03-10T10:27:12.000Z</time>
      </trkpt>
      <trkpt lat="44.19578" lon="4.23759">
        <ele>171.19999694824</ele>
        <time>2020-03-10T10:27:13.000Z</time>
      </trkpt>
      <trkpt lat="44.19576" lon="4.23759">
        <ele>171.19999694824</ele>
        <time>2020-03-10T10:27:14.000Z</time>
      </trkpt>
      <trkpt lat="44.19572" lon="4.23757">
        <ele>171.60000610352</ele>
        <time>2020-03-10T10:27:16.000Z</time>
      </trkpt>
      <trkpt lat="44.19573" lon="4.23751">
        <ele>172.19999694824</ele>
        <time>2020-03-10T10:27:19.000Z</time>
      </trkpt>
      <trkpt lat="44.19572" lon="4.23748">
        <ele>172.39999389648</ele>
        <time>2020-03-10T10:27:20.000Z</time>
      </trkpt>
      <trkpt lat="44.1957" lon="4.23743">
        <ele>173</ele>
        <time>2020-03-10T10:27:22.000Z</time>
      </trkpt>
      <trkpt lat="44.19566" lon="4.23741">
        <ele>173.39999389648</ele>
        <time>2020-03-10T10:27:24.000Z</time>
      </trkpt>
      <trkpt lat="44.19564" lon="4.23741">
        <ele>173.60000610352</ele>
        <time>2020-03-10T10:27:25.000Z</time>
      </trkpt>
      <trkpt lat="44.19557" lon="4.2374">
        <ele>174.19999694824</ele>
        <time>2020-03-10T10:27:28.000Z</time>
      </trkpt>
      <trkpt lat="44.19552" lon="4.23736">
        <ele>174.80000305176</ele>
        <time>2020-03-10T10:27:30.000Z</time>
      </trkpt>
      <trkpt lat="44.1955" lon="4.23734">
        <ele>175.19999694824</ele>
        <time>2020-03-10T10:27:31.000Z</time>
      </trkpt>
      <trkpt lat="44.19547" lon="4.23725">
        <ele>176.19999694824</ele>
        <time>2020-03-10T10:27:34.000Z</time>
      </trkpt>
      <trkpt lat="44.19547" lon="4.23721">
        <ele>176.39999389648</ele>
        <time>2020-03-10T10:27:35.000Z</time>
      </trkpt>
      <trkpt lat="44.19544" lon="4.23708">
        <ele>177.39999389648</ele>
        <time>2020-03-10T10:27:39.000Z</time>
      </trkpt>
      <trkpt lat="44.19542" lon="4.23705">
        <ele>177.60000610352</ele>
        <time>2020-03-10T10:27:40.000Z</time>
      </trkpt>
      <trkpt lat="44.19529" lon="4.23691">
        <ele>179.39999389648</ele>
        <time>2020-03-10T10:27:46.000Z</time>
      </trkpt>
      <trkpt lat="44.19527" lon="4.23688">
        <ele>179.60000610352</ele>
        <time>2020-03-10T10:27:47.000Z</time>
      </trkpt>
      <trkpt lat="44.19519" lon="4.23676">
        <ele>179.60000610352</ele>
        <time>2020-03-10T10:27:51.000Z</time>
      </trkpt>
      <trkpt lat="44.19516" lon="4.23673">
        <ele>179.60000610352</ele>
        <time>2020-03-10T10:27:52.000Z</time>
      </trkpt>
      <trkpt lat="44.19507" lon="4.23654">
        <ele>179.39999389648</ele>
        <time>2020-03-10T10:27:57.000Z</time>
      </trkpt>
      <trkpt lat="44.19494" lon="4.23621">
        <ele>178.39999389648</ele>
        <time>2020-03-10T10:28:04.000Z</time>
      </trkpt>
      <trkpt lat="44.19489" lon="4.23616">
        <ele>178.60000610352</ele>
        <time>2020-03-10T10:28:05.000Z</time>
      </trkpt>
      <trkpt lat="44.1948" lon="4.23614">
        <ele>179.39999389648</ele>
        <time>2020-03-10T10:28:07.000Z</time>
      </trkpt>
      <trkpt lat="44.19468" lon="4.23614">
        <ele>180.60000610352</ele>
        <time>2020-03-10T10:28:11.000Z</time>
      </trkpt>
      <trkpt lat="44.19456" lon="4.23616">
        <ele>182</ele>
        <time>2020-03-10T10:28:16.000Z</time>
      </trkpt>
      <trkpt lat="44.19454" lon="4.23617">
        <ele>182.39999389648</ele>
        <time>2020-03-10T10:28:17.000Z</time>
      </trkpt>
      <trkpt lat="44.19453" lon="4.23619">
        <ele>182.60000610352</ele>
        <time>2020-03-10T10:28:18.000Z</time>
      </trkpt>
      <trkpt lat="44.1945" lon="4.23624">
        <ele>182.60000610352</ele>
        <time>2020-03-10T10:28:20.000Z</time>
      </trkpt>
      <trkpt lat="44.19446" lon="4.23631">
        <ele>182.39999389648</ele>
        <time>2020-03-10T10:28:23.000Z</time>
      </trkpt>
      <trkpt lat="44.19443" lon="4.23635">
        <ele>181.80000305176</ele>
        <time>2020-03-10T10:28:38.000Z</time>
      </trkpt>
      <trkpt lat="44.1944" lon="4.23639">
        <ele>181.19999694824</ele>
        <time>2020-03-10T10:28:40.000Z</time>
      </trkpt>
      <trkpt lat="44.19425" lon="4.23636">
        <ele>179.19999694824</ele>
        <time>2020-03-10T10:28:44.000Z</time>
      </trkpt>
      <trkpt lat="44.19421" lon="4.23625">
        <ele>179</ele>
        <time>2020-03-10T10:28:46.000Z</time>
      </trkpt>
      <trkpt lat="44.19418" lon="4.23623">
        <ele>178.80000305176</ele>
        <time>2020-03-10T10:28:47.000Z</time>
      </trkpt>
      <trkpt lat="44.19414" lon="4.23618">
        <ele>178.39999389648</ele>
        <time>2020-03-10T10:28:49.000Z</time>
      </trkpt>
      <trkpt lat="44.19404" lon="4.23613">
        <ele>177.19999694824</ele>
        <time>2020-03-10T10:28:53.000Z</time>
      </trkpt>
      <trkpt lat="44.19399" lon="4.23608">
        <ele>176.19999694824</ele>
        <time>2020-03-10T10:28:55.000Z</time>
      </trkpt>
      <trkpt lat="44.19386" lon="4.23596">
        <ele>174</ele>
        <time>2020-03-10T10:29:00.000Z</time>
      </trkpt>
      <trkpt lat="44.19378" lon="4.2359">
        <ele>172.60000610352</ele>
        <time>2020-03-10T10:29:05.000Z</time>
      </trkpt>
      <trkpt lat="44.19373" lon="4.23586">
        <ele>171.60000610352</ele>
        <time>2020-03-10T10:30:43.000Z</time>
      </trkpt>
      <trkpt lat="44.19365" lon="4.23574">
        <ele>170</ele>
        <time>2020-03-10T10:30:47.000Z</time>
      </trkpt>
      <trkpt lat="44.19363" lon="4.23568">
        <ele>169.60000610352</ele>
        <time>2020-03-10T10:30:48.000Z</time>
      </trkpt>
      <trkpt lat="44.19359" lon="4.23556">
        <ele>168.19999694824</ele>
        <time>2020-03-10T10:30:50.000Z</time>
      </trkpt>
      <trkpt lat="44.19357" lon="4.23548">
        <ele>167.60000610352</ele>
        <time>2020-03-10T10:30:51.000Z</time>
      </trkpt>
      <trkpt lat="44.19359" lon="4.2353">
        <ele>167.39999389648</ele>
        <time>2020-03-10T10:30:53.000Z</time>
      </trkpt>
      <trkpt lat="44.19358" lon="4.23509">
        <ele>165.39999389648</ele>
        <time>2020-03-10T10:30:55.000Z</time>
      </trkpt>
      <trkpt lat="44.19356" lon="4.23501">
        <ele>164</ele>
        <time>2020-03-10T10:30:56.000Z</time>
      </trkpt>
      <trkpt lat="44.19354" lon="4.23493">
        <ele>162.80000305176</ele>
        <time>2020-03-10T10:30:57.000Z</time>
      </trkpt>
      <trkpt lat="44.19353" lon="4.23485">
        <ele>161.80000305176</ele>
        <time>2020-03-10T10:30:58.000Z</time>
      </trkpt>
      <trkpt lat="44.19354" lon="4.23478">
        <ele>161.19999694824</ele>
        <time>2020-03-10T10:30:59.000Z</time>
      </trkpt>
      <trkpt lat="44.19352" lon="4.23476">
        <ele>160.80000305176</ele>
        <time>2020-03-10T10:31:00.000Z</time>
      </trkpt>
      <trkpt lat="44.1935" lon="4.23479">
        <ele>160.60000610352</ele>
        <time>2020-03-10T10:31:01.000Z</time>
      </trkpt>
      <trkpt lat="44.19348" lon="4.23484">
        <ele>161</ele>
        <time>2020-03-10T10:31:02.000Z</time>
      </trkpt>
      <trkpt lat="44.19346" lon="4.23489">
        <ele>161</ele>
        <time>2020-03-10T10:31:03.000Z</time>
      </trkpt>
      <trkpt lat="44.1934" lon="4.23491">
        <ele>160.19999694824</ele>
        <time>2020-03-10T10:31:05.000Z</time>
      </trkpt>
      <trkpt lat="44.19339" lon="4.23487">
        <ele>159.60000610352</ele>
        <time>2020-03-10T10:31:06.000Z</time>
      </trkpt>
      <trkpt lat="44.1934" lon="4.23476">
        <ele>158.80000305176</ele>
        <time>2020-03-10T10:31:08.000Z</time>
      </trkpt>
      <trkpt lat="44.19341" lon="4.23471">
        <ele>158.39999389648</ele>
        <time>2020-03-10T10:31:09.000Z</time>
      </trkpt>
      <trkpt lat="44.19341" lon="4.23463">
        <ele>157.39999389648</ele>
        <time>2020-03-10T10:31:11.000Z</time>
      </trkpt>
      <trkpt lat="44.19339" lon="4.23463">
        <ele>157</ele>
        <time>2020-03-10T10:31:12.000Z</time>
      </trkpt>
      <trkpt lat="44.19331" lon="4.23469">
        <ele>156.39999389648</ele>
        <time>2020-03-10T10:31:14.000Z</time>
      </trkpt>
      <trkpt lat="44.19326" lon="4.23473">
        <ele>156</ele>
        <time>2020-03-10T10:31:15.000Z</time>
      </trkpt>
      <trkpt lat="44.19319" lon="4.23483">
        <ele>155.80000305176</ele>
        <time>2020-03-10T10:31:17.000Z</time>
      </trkpt>
      <trkpt lat="44.1931" lon="4.23494">
        <ele>154.19999694824</ele>
        <time>2020-03-10T10:31:19.000Z</time>
      </trkpt>
      <trkpt lat="44.19305" lon="4.23501">
        <ele>153.19999694824</ele>
        <time>2020-03-10T10:31:20.000Z</time>
      </trkpt>
      <trkpt lat="44.19301" lon="4.23508">
        <ele>152.19999694824</ele>
        <time>2020-03-10T10:31:21.000Z</time>
      </trkpt>
      <trkpt lat="44.19297" lon="4.23516">
        <ele>151.39999389648</ele>
        <time>2020-03-10T10:31:22.000Z</time>
      </trkpt>
      <trkpt lat="44.19294" lon="4.23525">
        <ele>150.80000305176</ele>
        <time>2020-03-10T10:31:23.000Z</time>
      </trkpt>
      <trkpt lat="44.19291" lon="4.23535">
        <ele>150.60000610352</ele>
        <time>2020-03-10T10:31:24.000Z</time>
      </trkpt>
      <trkpt lat="44.19289" lon="4.23544">
        <ele>150</ele>
        <time>2020-03-10T10:31:25.000Z</time>
      </trkpt>
      <trkpt lat="44.19285" lon="4.23553">
        <ele>148.80000305176</ele>
        <time>2020-03-10T10:31:26.000Z</time>
      </trkpt>
      <trkpt lat="44.19282" lon="4.23563">
        <ele>147.80000305176</ele>
        <time>2020-03-10T10:31:27.000Z</time>
      </trkpt>
      <trkpt lat="44.19281" lon="4.23574">
        <ele>147.19999694824</ele>
        <time>2020-03-10T10:31:28.000Z</time>
      </trkpt>
      <trkpt lat="44.19281" lon="4.23582">
        <ele>147.39999389648</ele>
        <time>2020-03-10T10:31:29.000Z</time>
      </trkpt>
      <trkpt lat="44.19284" lon="4.23596">
        <ele>148</ele>
        <time>2020-03-10T10:31:31.000Z</time>
      </trkpt>
      <trkpt lat="44.19286" lon="4.23604">
        <ele>148.39999389648</ele>
        <time>2020-03-10T10:31:32.000Z</time>
      </trkpt>
      <trkpt lat="44.19288" lon="4.23611">
        <ele>148.80000305176</ele>
        <time>2020-03-10T10:31:33.000Z</time>
      </trkpt>
      <trkpt lat="44.19296" lon="4.23631">
        <ele>148.80000305176</ele>
        <time>2020-03-10T10:31:36.000Z</time>
      </trkpt>
      <trkpt lat="44.19307" lon="4.2366">
        <ele>148.80000305176</ele>
        <time>2020-03-10T10:31:40.000Z</time>
      </trkpt>
      <trkpt lat="44.19311" lon="4.23665">
        <ele>149.19999694824</ele>
        <time>2020-03-10T10:31:41.000Z</time>
      </trkpt>
      <trkpt lat="44.19316" lon="4.23673">
        <ele>150</ele>
        <time>2020-03-10T10:31:43.000Z</time>
      </trkpt>
      <trkpt lat="44.19321" lon="4.23683">
        <ele>150.19999694824</ele>
        <time>2020-03-10T10:31:45.000Z</time>
      </trkpt>
      <trkpt lat="44.19327" lon="4.23692">
        <ele>150.80000305176</ele>
        <time>2020-03-10T10:31:47.000Z</time>
      </trkpt>
      <trkpt lat="44.19329" lon="4.23698">
        <ele>150.60000610352</ele>
        <time>2020-03-10T10:31:48.000Z</time>
      </trkpt>
      <trkpt lat="44.19334" lon="4.23711">
        <ele>149.60000610352</ele>
        <time>2020-03-10T10:31:50.000Z</time>
      </trkpt>
      <trkpt lat="44.1934" lon="4.2372">
        <ele>150</ele>
        <time>2020-03-10T10:31:52.000Z</time>
      </trkpt>
      <trkpt lat="44.19351" lon="4.23727">
        <ele>152</ele>
        <time>2020-03-10T10:31:55.000Z</time>
      </trkpt>
      <trkpt lat="44.19355" lon="4.23729">
        <ele>152.60000610352</ele>
        <time>2020-03-10T10:31:56.000Z</time>
      </trkpt>
      <trkpt lat="44.19361" lon="4.23734">
        <ele>153.39999389648</ele>
        <time>2020-03-10T10:31:58.000Z</time>
      </trkpt>
      <trkpt lat="44.19366" lon="4.23741">
        <ele>153.19999694824</ele>
        <time>2020-03-10T10:32:00.000Z</time>
      </trkpt>
      <trkpt lat="44.19373" lon="4.23749">
        <ele>153.60000610352</ele>
        <time>2020-03-10T10:32:03.000Z</time>
      </trkpt>
      <trkpt lat="44.19369" lon="4.23758">
        <ele>151</ele>
        <time>2020-03-10T10:32:06.000Z</time>
      </trkpt>
      <trkpt lat="44.19363" lon="4.23765">
        <ele>148.60000610352</ele>
        <time>2020-03-10T10:32:08.000Z</time>
      </trkpt>
      <trkpt lat="44.1936" lon="4.23765">
        <ele>147.80000305176</ele>
        <time>2020-03-10T10:32:09.000Z</time>
      </trkpt>
      <trkpt lat="44.19349" lon="4.23767">
        <ele>144.60000610352</ele>
        <time>2020-03-10T10:32:11.000Z</time>
      </trkpt>
      <trkpt lat="44.19345" lon="4.23767">
        <ele>143.80000305176</ele>
        <time>2020-03-10T10:32:12.000Z</time>
      </trkpt>
      <trkpt lat="44.1934" lon="4.23764">
        <ele>143</ele>
        <time>2020-03-10T10:32:13.000Z</time>
      </trkpt>
      <trkpt lat="44.19336" lon="4.23764">
        <ele>142.19999694824</ele>
        <time>2020-03-10T10:32:14.000Z</time>
      </trkpt>
      <trkpt lat="44.19333" lon="4.23765">
        <ele>141.60000610352</ele>
        <time>2020-03-10T10:32:15.000Z</time>
      </trkpt>
      <trkpt lat="44.19327" lon="4.23767">
        <ele>140.39999389648</ele>
        <time>2020-03-10T10:32:16.000Z</time>
      </trkpt>
      <trkpt lat="44.19325" lon="4.23771">
        <ele>139.60000610352</ele>
        <time>2020-03-10T10:32:17.000Z</time>
      </trkpt>
      <trkpt lat="44.19325" lon="4.23776">
        <ele>139.39999389648</ele>
        <time>2020-03-10T10:32:18.000Z</time>
      </trkpt>
      <trkpt lat="44.19326" lon="4.23781">
        <ele>139</ele>
        <time>2020-03-10T10:32:19.000Z</time>
      </trkpt>
      <trkpt lat="44.19326" lon="4.23784">
        <ele>138.60000610352</ele>
        <time>2020-03-10T10:32:20.000Z</time>
      </trkpt>
      <trkpt lat="44.19325" lon="4.23785">
        <ele>138.19999694824</ele>
        <time>2020-03-10T10:32:21.000Z</time>
      </trkpt>
      <trkpt lat="44.19321" lon="4.23789">
        <ele>137</ele>
        <time>2020-03-10T10:32:33.000Z</time>
      </trkpt>
      <trkpt lat="44.19321" lon="4.23791">
        <ele>136.80000305176</ele>
        <time>2020-03-10T10:32:34.000Z</time>
      </trkpt>
      <trkpt lat="44.1932" lon="4.23795">
        <ele>136</ele>
        <time>2020-03-10T10:33:32.000Z</time>
      </trkpt>
      <trkpt lat="44.19319" lon="4.23799">
        <ele>135.39999389648</ele>
        <time>2020-03-10T10:33:33.000Z</time>
      </trkpt>
      <trkpt lat="44.19317" lon="4.23815">
        <ele>133</ele>
        <time>2020-03-10T10:33:36.000Z</time>
      </trkpt>
      <trkpt lat="44.19317" lon="4.23823">
        <ele>132.80000305176</ele>
        <time>2020-03-10T10:33:37.000Z</time>
      </trkpt>
      <trkpt lat="44.19314" lon="4.23839">
        <ele>132.19999694824</ele>
        <time>2020-03-10T10:33:39.000Z</time>
      </trkpt>
      <trkpt lat="44.19307" lon="4.23852">
        <ele>131.60000610352</ele>
        <time>2020-03-10T10:33:41.000Z</time>
      </trkpt>
      <trkpt lat="44.193" lon="4.23866">
        <ele>130.39999389648</ele>
        <time>2020-03-10T10:33:43.000Z</time>
      </trkpt>
      <trkpt lat="44.19291" lon="4.23879">
        <ele>128.60000610352</ele>
        <time>2020-03-10T10:33:45.000Z</time>
      </trkpt>
      <trkpt lat="44.19281" lon="4.23879">
        <ele>129</ele>
        <time>2020-03-10T10:33:47.000Z</time>
      </trkpt>
      <trkpt lat="44.19276" lon="4.23875">
        <ele>129</ele>
        <time>2020-03-10T10:33:48.000Z</time>
      </trkpt>
      <trkpt lat="44.19267" lon="4.23867">
        <ele>128.80000305176</ele>
        <time>2020-03-10T10:33:50.000Z</time>
      </trkpt>
      <trkpt lat="44.19262" lon="4.23863">
        <ele>128.80000305176</ele>
        <time>2020-03-10T10:33:51.000Z</time>
      </trkpt>
      <trkpt lat="44.19258" lon="4.23859">
        <ele>128.80000305176</ele>
        <time>2020-03-10T10:33:52.000Z</time>
      </trkpt>
      <trkpt lat="44.19244" lon="4.23847">
        <ele>128.39999389648</ele>
        <time>2020-03-10T10:33:55.000Z</time>
      </trkpt>
      <trkpt lat="44.19234" lon="4.2384">
        <ele>128.19999694824</ele>
        <time>2020-03-10T10:33:57.000Z</time>
      </trkpt>
      <trkpt lat="44.1922" lon="4.2383">
        <ele>128</ele>
        <time>2020-03-10T10:34:00.000Z</time>
      </trkpt>
      <trkpt lat="44.1921" lon="4.23826">
        <ele>127.80000305176</ele>
        <time>2020-03-10T10:34:02.000Z</time>
      </trkpt>
      <trkpt lat="44.19201" lon="4.2382">
        <ele>127.59999847412</ele>
        <time>2020-03-10T10:34:04.000Z</time>
      </trkpt>
      <trkpt lat="44.19192" lon="4.23812">
        <ele>127.40000152588</ele>
        <time>2020-03-10T10:34:06.000Z</time>
      </trkpt>
      <trkpt lat="44.19188" lon="4.23807">
        <ele>127.59999847412</ele>
        <time>2020-03-10T10:34:07.000Z</time>
      </trkpt>
      <trkpt lat="44.19181" lon="4.23796">
        <ele>127.80000305176</ele>
        <time>2020-03-10T10:34:09.000Z</time>
      </trkpt>
      <trkpt lat="44.19176" lon="4.23792">
        <ele>127.80000305176</ele>
        <time>2020-03-10T10:34:10.000Z</time>
      </trkpt>
      <trkpt lat="44.19163" lon="4.23779">
        <ele>128.19999694824</ele>
        <time>2020-03-10T10:34:13.000Z</time>
      </trkpt>
      <trkpt lat="44.19141" lon="4.23758">
        <ele>128.39999389648</ele>
        <time>2020-03-10T10:34:18.000Z</time>
      </trkpt>
      <trkpt lat="44.19137" lon="4.23754">
        <ele>128.39999389648</ele>
        <time>2020-03-10T10:34:19.000Z</time>
      </trkpt>
      <trkpt lat="44.19127" lon="4.23729">
        <ele>128.19999694824</ele>
        <time>2020-03-10T10:34:23.000Z</time>
      </trkpt>
      <trkpt lat="44.19123" lon="4.23724">
        <ele>128.19999694824</ele>
        <time>2020-03-10T10:34:24.000Z</time>
      </trkpt>
      <trkpt lat="44.19107" lon="4.23704">
        <ele>128.19999694824</ele>
        <time>2020-03-10T10:34:28.000Z</time>
      </trkpt>
      <trkpt lat="44.19084" lon="4.23672">
        <ele>128</ele>
        <time>2020-03-10T10:34:34.000Z</time>
      </trkpt>
      <trkpt lat="44.1908" lon="4.23666">
        <ele>128</ele>
        <time>2020-03-10T10:34:35.000Z</time>
      </trkpt>
      <trkpt lat="44.19076" lon="4.23661">
        <ele>128</ele>
        <time>2020-03-10T10:34:36.000Z</time>
      </trkpt>
      <trkpt lat="44.19071" lon="4.23653">
        <ele>128</ele>
        <time>2020-03-10T10:34:38.000Z</time>
      </trkpt>
      <trkpt lat="44.19056" lon="4.23627">
        <ele>128</ele>
        <time>2020-03-10T10:34:44.000Z</time>
      </trkpt>
      <trkpt lat="44.19047" lon="4.23596">
        <ele>128.39999389648</ele>
        <time>2020-03-10T10:34:49.000Z</time>
      </trkpt>
      <trkpt lat="44.19043" lon="4.23591">
        <ele>128.60000610352</ele>
        <time>2020-03-10T10:34:50.000Z</time>
      </trkpt>
      <trkpt lat="44.19029" lon="4.2357">
        <ele>129</ele>
        <time>2020-03-10T10:34:54.000Z</time>
      </trkpt>
      <trkpt lat="44.18999" lon="4.2353">
        <ele>129.19999694824</ele>
        <time>2020-03-10T10:35:02.000Z</time>
      </trkpt>
      <trkpt lat="44.18982" lon="4.23507">
        <ele>129.60000610352</ele>
        <time>2020-03-10T10:35:07.000Z</time>
      </trkpt>
      <trkpt lat="44.18979" lon="4.23502">
        <ele>129.80000305176</ele>
        <time>2020-03-10T10:35:08.000Z</time>
      </trkpt>
      <trkpt lat="44.18971" lon="4.23485">
        <ele>130.19999694824</ele>
        <time>2020-03-10T10:35:11.000Z</time>
      </trkpt>
      <trkpt lat="44.18964" lon="4.23467">
        <ele>130.60000610352</ele>
        <time>2020-03-10T10:35:14.000Z</time>
      </trkpt>
      <trkpt lat="44.18959" lon="4.23456">
        <ele>131.19999694824</ele>
        <time>2020-03-10T10:35:16.000Z</time>
      </trkpt>
      <trkpt lat="44.18956" lon="4.23444">
        <ele>132</ele>
        <time>2020-03-10T10:35:18.000Z</time>
      </trkpt>
      <trkpt lat="44.18953" lon="4.23439">
        <ele>132.60000610352</ele>
        <time>2020-03-10T10:35:19.000Z</time>
      </trkpt>
      <trkpt lat="44.18944" lon="4.23422">
        <ele>133.80000305176</ele>
        <time>2020-03-10T10:35:22.000Z</time>
      </trkpt>
      <trkpt lat="44.1894" lon="4.23411">
        <ele>134.60000610352</ele>
        <time>2020-03-10T10:35:24.000Z</time>
      </trkpt>
      <trkpt lat="44.18934" lon="4.23396">
        <ele>135.80000305176</ele>
        <time>2020-03-10T10:35:27.000Z</time>
      </trkpt>
      <trkpt lat="44.18932" lon="4.2338">
        <ele>137.39999389648</ele>
        <time>2020-03-10T10:35:30.000Z</time>
      </trkpt>
      <trkpt lat="44.18934" lon="4.23376">
        <ele>138.19999694824</ele>
        <time>2020-03-10T10:35:31.000Z</time>
      </trkpt>
      <trkpt lat="44.18938" lon="4.23376">
        <ele>138.60000610352</ele>
        <time>2020-03-10T10:35:33.000Z</time>
      </trkpt>
      <trkpt lat="44.1894" lon="4.23376">
        <ele>138.80000305176</ele>
        <time>2020-03-10T10:35:34.000Z</time>
      </trkpt>
      <trkpt lat="44.18951" lon="4.2339">
        <ele>138.19999694824</ele>
        <time>2020-03-10T10:35:38.000Z</time>
      </trkpt>
      <trkpt lat="44.18973" lon="4.23407">
        <ele>138</ele>
        <time>2020-03-10T10:35:44.000Z</time>
      </trkpt>
      <trkpt lat="44.18981" lon="4.23409">
        <ele>138.39999389648</ele>
        <time>2020-03-10T10:35:48.000Z</time>
      </trkpt>
      <trkpt lat="44.18983" lon="4.2341">
        <ele>138.60000610352</ele>
        <time>2020-03-10T10:35:49.000Z</time>
      </trkpt>
      <trkpt lat="44.18993" lon="4.23412">
        <ele>139</ele>
        <time>2020-03-10T10:35:53.000Z</time>
      </trkpt>
      <trkpt lat="44.18995" lon="4.23412">
        <ele>139.19999694824</ele>
        <time>2020-03-10T10:35:54.000Z</time>
      </trkpt>
      <trkpt lat="44.18996" lon="4.2341">
        <ele>140</ele>
        <time>2020-03-10T10:35:55.000Z</time>
      </trkpt>
      <trkpt lat="44.18996" lon="4.23405">
        <ele>140.80000305176</ele>
        <time>2020-03-10T10:35:57.000Z</time>
      </trkpt>
      <trkpt lat="44.18995" lon="4.23402">
        <ele>141.60000610352</ele>
        <time>2020-03-10T10:35:58.000Z</time>
      </trkpt>
      <trkpt lat="44.18992" lon="4.23395">
        <ele>142.60000610352</ele>
        <time>2020-03-10T10:36:01.000Z</time>
      </trkpt>
      <trkpt lat="44.18988" lon="4.2339">
        <ele>143</ele>
        <time>2020-03-10T10:36:03.000Z</time>
      </trkpt>
      <trkpt lat="44.18985" lon="4.23385">
        <ele>143.39999389648</ele>
        <time>2020-03-10T10:36:05.000Z</time>
      </trkpt>
      <trkpt lat="44.18983" lon="4.23381">
        <ele>143.80000305176</ele>
        <time>2020-03-10T10:36:06.000Z</time>
      </trkpt>
      <trkpt lat="44.18982" lon="4.23378">
        <ele>144.19999694824</ele>
        <time>2020-03-10T10:36:07.000Z</time>
      </trkpt>
      <trkpt lat="44.1898" lon="4.23372">
        <ele>145.19999694824</ele>
        <time>2020-03-10T10:36:09.000Z</time>
      </trkpt>
      <trkpt lat="44.18979" lon="4.23366">
        <ele>146.19999694824</ele>
        <time>2020-03-10T10:36:11.000Z</time>
      </trkpt>
      <trkpt lat="44.18979" lon="4.23364">
        <ele>146.80000305176</ele>
        <time>2020-03-10T10:36:12.000Z</time>
      </trkpt>
      <trkpt lat="44.18983" lon="4.23365">
        <ele>147.39999389648</ele>
        <time>2020-03-10T10:36:15.000Z</time>
      </trkpt>
      <trkpt lat="44.18986" lon="4.23365">
        <ele>147.80000305176</ele>
        <time>2020-03-10T10:36:16.000Z</time>
      </trkpt>
      <trkpt lat="44.18989" lon="4.23365">
        <ele>148.19999694824</ele>
        <time>2020-03-10T10:36:17.000Z</time>
      </trkpt>
      <trkpt lat="44.18996" lon="4.23366">
        <ele>149.39999389648</ele>
        <time>2020-03-10T10:36:20.000Z</time>
      </trkpt>
      <trkpt lat="44.19" lon="4.23367">
        <ele>149.80000305176</ele>
        <time>2020-03-10T10:36:22.000Z</time>
      </trkpt>
      <trkpt lat="44.19005" lon="4.23369">
        <ele>150.39999389648</ele>
        <time>2020-03-10T10:36:24.000Z</time>
      </trkpt>
      <trkpt lat="44.19015" lon="4.23376">
        <ele>150.80000305176</ele>
        <time>2020-03-10T10:36:28.000Z</time>
      </trkpt>
      <trkpt lat="44.19031" lon="4.23377">
        <ele>153</ele>
        <time>2020-03-10T10:36:33.000Z</time>
      </trkpt>
      <trkpt lat="44.19034" lon="4.23379">
        <ele>152.80000305176</ele>
        <time>2020-03-10T10:36:34.000Z</time>
      </trkpt>
      <trkpt lat="44.19038" lon="4.23383">
        <ele>152.19999694824</ele>
        <time>2020-03-10T10:36:36.000Z</time>
      </trkpt>
      <trkpt lat="44.19051" lon="4.23388">
        <ele>152</ele>
        <time>2020-03-10T10:36:40.000Z</time>
      </trkpt>
      <trkpt lat="44.19054" lon="4.23389">
        <ele>152.19999694824</ele>
        <time>2020-03-10T10:36:41.000Z</time>
      </trkpt>
      <trkpt lat="44.19069" lon="4.23391">
        <ele>152.39999389648</ele>
        <time>2020-03-10T10:36:46.000Z</time>
      </trkpt>
      <trkpt lat="44.19082" lon="4.23395">
        <ele>152</ele>
        <time>2020-03-10T10:36:49.000Z</time>
      </trkpt>
      <trkpt lat="44.19087" lon="4.23394">
        <ele>152.39999389648</ele>
        <time>2020-03-10T10:36:50.000Z</time>
      </trkpt>
      <trkpt lat="44.19098" lon="4.23391">
        <ele>153.39999389648</ele>
        <time>2020-03-10T10:36:52.000Z</time>
      </trkpt>
      <trkpt lat="44.19106" lon="4.23384">
        <ele>154.80000305176</ele>
        <time>2020-03-10T10:36:54.000Z</time>
      </trkpt>
      <trkpt lat="44.19112" lon="4.23378">
        <ele>156.19999694824</ele>
        <time>2020-03-10T10:36:56.000Z</time>
      </trkpt>
      <trkpt lat="44.19119" lon="4.23374">
        <ele>156.39999389648</ele>
        <time>2020-03-10T10:36:58.000Z</time>
      </trkpt>
      <trkpt lat="44.19126" lon="4.23367">
        <ele>156.80000305176</ele>
        <time>2020-03-10T10:37:00.000Z</time>
      </trkpt>
      <trkpt lat="44.1913" lon="4.23366">
        <ele>156.60000610352</ele>
        <time>2020-03-10T10:37:01.000Z</time>
      </trkpt>
      <trkpt lat="44.19141" lon="4.23357">
        <ele>156.60000610352</ele>
        <time>2020-03-10T10:37:04.000Z</time>
      </trkpt>
      <trkpt lat="44.19149" lon="4.23353">
        <ele>156.60000610352</ele>
        <time>2020-03-10T10:37:07.000Z</time>
      </trkpt>
      <trkpt lat="44.19153" lon="4.23354">
        <ele>156</ele>
        <time>2020-03-10T10:37:08.000Z</time>
      </trkpt>
      <trkpt lat="44.19158" lon="4.2335">
        <ele>156.19999694824</ele>
        <time>2020-03-10T10:37:09.000Z</time>
      </trkpt>
      <trkpt lat="44.19163" lon="4.23349">
        <ele>155.80000305176</ele>
        <time>2020-03-10T10:37:10.000Z</time>
      </trkpt>
      <trkpt lat="44.19175" lon="4.23345">
        <ele>155.39999389648</ele>
        <time>2020-03-10T10:37:13.000Z</time>
      </trkpt>
      <trkpt lat="44.19185" lon="4.23347">
        <ele>153.39999389648</ele>
        <time>2020-03-10T10:37:16.000Z</time>
      </trkpt>
      <trkpt lat="44.19194" lon="4.23345">
        <ele>152.39999389648</ele>
        <time>2020-03-10T10:37:18.000Z</time>
      </trkpt>
      <trkpt lat="44.19197" lon="4.23348">
        <ele>151.80000305176</ele>
        <time>2020-03-10T10:37:19.000Z</time>
      </trkpt>
      <trkpt lat="44.19204" lon="4.23342">
        <ele>152.19999694824</ele>
        <time>2020-03-10T10:37:22.000Z</time>
      </trkpt>
      <trkpt lat="44.19207" lon="4.23334">
        <ele>153.19999694824</ele>
        <time>2020-03-10T10:37:24.000Z</time>
      </trkpt>
      <trkpt lat="44.19212" lon="4.23324">
        <ele>154.19999694824</ele>
        <time>2020-03-10T10:37:27.000Z</time>
      </trkpt>
      <trkpt lat="44.19213" lon="4.2332">
        <ele>154.80000305176</ele>
        <time>2020-03-10T10:37:29.000Z</time>
      </trkpt>
      <trkpt lat="44.19213" lon="4.23317">
        <ele>155</ele>
        <time>2020-03-10T10:37:31.000Z</time>
      </trkpt>
      <trkpt lat="44.19211" lon="4.23312">
        <ele>155.80000305176</ele>
        <time>2020-03-10T10:37:38.000Z</time>
      </trkpt>
      <trkpt lat="44.1921" lon="4.23307">
        <ele>156.60000610352</ele>
        <time>2020-03-10T10:37:40.000Z</time>
      </trkpt>
      <trkpt lat="44.19208" lon="4.23299">
        <ele>157.80000305176</ele>
        <time>2020-03-10T10:37:43.000Z</time>
      </trkpt>
      <trkpt lat="44.19205" lon="4.23295">
        <ele>158.39999389648</ele>
        <time>2020-03-10T10:37:45.000Z</time>
      </trkpt>
      <trkpt lat="44.19204" lon="4.23287">
        <ele>159.39999389648</ele>
        <time>2020-03-10T10:37:48.000Z</time>
      </trkpt>
      <trkpt lat="44.19205" lon="4.23285">
        <ele>159.39999389648</ele>
        <time>2020-03-10T10:37:49.000Z</time>
      </trkpt>
      <trkpt lat="44.19209" lon="4.23279">
        <ele>159.19999694824</ele>
        <time>2020-03-10T10:37:51.000Z</time>
      </trkpt>
      <trkpt lat="44.19213" lon="4.2327">
        <ele>159</ele>
        <time>2020-03-10T10:37:54.000Z</time>
      </trkpt>
      <trkpt lat="44.1922" lon="4.23254">
        <ele>159</ele>
        <time>2020-03-10T10:37:59.000Z</time>
      </trkpt>
      <trkpt lat="44.19224" lon="4.23245">
        <ele>158.80000305176</ele>
        <time>2020-03-10T10:38:02.000Z</time>
      </trkpt>
      <trkpt lat="44.19225" lon="4.23241">
        <ele>158.80000305176</ele>
        <time>2020-03-10T10:38:03.000Z</time>
      </trkpt>
      <trkpt lat="44.1922" lon="4.23239">
        <ele>159.60000610352</ele>
        <time>2020-03-10T10:38:05.000Z</time>
      </trkpt>
      <trkpt lat="44.19217" lon="4.23242">
        <ele>159.80000305176</ele>
        <time>2020-03-10T10:38:07.000Z</time>
      </trkpt>
      <trkpt lat="44.19214" lon="4.23247">
        <ele>160</ele>
        <time>2020-03-10T10:38:09.000Z</time>
      </trkpt>
      <trkpt lat="44.19208" lon="4.23256">
        <ele>160.39999389648</ele>
        <time>2020-03-10T10:38:12.000Z</time>
      </trkpt>
      <trkpt lat="44.19205" lon="4.23256">
        <ele>160.80000305176</ele>
        <time>2020-03-10T10:38:13.000Z</time>
      </trkpt>
      <trkpt lat="44.19197" lon="4.23262">
        <ele>161.60000610352</ele>
        <time>2020-03-10T10:38:17.000Z</time>
      </trkpt>
      <trkpt lat="44.19193" lon="4.23262">
        <ele>162.19999694824</ele>
        <time>2020-03-10T10:38:19.000Z</time>
      </trkpt>
      <trkpt lat="44.19191" lon="4.23264">
        <ele>162.39999389648</ele>
        <time>2020-03-10T10:38:20.000Z</time>
      </trkpt>
      <trkpt lat="44.19185" lon="4.23268">
        <ele>163.39999389648</ele>
        <time>2020-03-10T10:38:23.000Z</time>
      </trkpt>
      <trkpt lat="44.19184" lon="4.23264">
        <ele>163.60000610352</ele>
        <time>2020-03-10T10:38:25.000Z</time>
      </trkpt>
      <trkpt lat="44.19185" lon="4.23261">
        <ele>163.60000610352</ele>
        <time>2020-03-10T10:38:27.000Z</time>
      </trkpt>
      <trkpt lat="44.19187" lon="4.23256">
        <ele>163.39999389648</ele>
        <time>2020-03-10T10:38:29.000Z</time>
      </trkpt>
      <trkpt lat="44.19188" lon="4.23253">
        <ele>163.39999389648</ele>
        <time>2020-03-10T10:38:30.000Z</time>
      </trkpt>
      <trkpt lat="44.1919" lon="4.23246">
        <ele>163.60000610352</ele>
        <time>2020-03-10T10:38:32.000Z</time>
      </trkpt>
      <trkpt lat="44.1919" lon="4.23236">
        <ele>164</ele>
        <time>2020-03-10T10:38:34.000Z</time>
      </trkpt>
      <trkpt lat="44.19194" lon="4.23227">
        <ele>163.60000610352</ele>
        <time>2020-03-10T10:38:36.000Z</time>
      </trkpt>
      <trkpt lat="44.19201" lon="4.2322">
        <ele>163</ele>
        <time>2020-03-10T10:38:38.000Z</time>
      </trkpt>
      <trkpt lat="44.19207" lon="4.232">
        <ele>163.19999694824</ele>
        <time>2020-03-10T10:38:42.000Z</time>
      </trkpt>
      <trkpt lat="44.19212" lon="4.23184">
        <ele>163</ele>
        <time>2020-03-10T10:38:46.000Z</time>
      </trkpt>
      <trkpt lat="44.1921" lon="4.23174">
        <ele>163.60000610352</ele>
        <time>2020-03-10T10:38:49.000Z</time>
      </trkpt>
      <trkpt lat="44.19207" lon="4.23175">
        <ele>163.80000305176</ele>
        <time>2020-03-10T10:38:50.000Z</time>
      </trkpt>
      <trkpt lat="44.19203" lon="4.23177">
        <ele>164.39999389648</ele>
        <time>2020-03-10T10:38:52.000Z</time>
      </trkpt>
      <trkpt lat="44.19191" lon="4.23178">
        <ele>166</ele>
        <time>2020-03-10T10:38:56.000Z</time>
      </trkpt>
      <trkpt lat="44.19182" lon="4.23178">
        <ele>167.19999694824</ele>
        <time>2020-03-10T10:38:59.000Z</time>
      </trkpt>
      <trkpt lat="44.19173" lon="4.23179">
        <ele>168.80000305176</ele>
        <time>2020-03-10T10:39:02.000Z</time>
      </trkpt>
      <trkpt lat="44.1917" lon="4.2318">
        <ele>169.19999694824</ele>
        <time>2020-03-10T10:39:03.000Z</time>
      </trkpt>
      <trkpt lat="44.19165" lon="4.23181">
        <ele>170.19999694824</ele>
        <time>2020-03-10T10:39:05.000Z</time>
      </trkpt>
      <trkpt lat="44.19157" lon="4.23183">
        <ele>171.80000305176</ele>
        <time>2020-03-10T10:39:08.000Z</time>
      </trkpt>
      <trkpt lat="44.19151" lon="4.23184">
        <ele>172.80000305176</ele>
        <time>2020-03-10T10:39:10.000Z</time>
      </trkpt>
      <trkpt lat="44.19148" lon="4.23184">
        <ele>173.19999694824</ele>
        <time>2020-03-10T10:39:11.000Z</time>
      </trkpt>
      <trkpt lat="44.19142" lon="4.23186">
        <ele>174.39999389648</ele>
        <time>2020-03-10T10:39:13.000Z</time>
      </trkpt>
      <trkpt lat="44.1914" lon="4.23189">
        <ele>174.80000305176</ele>
        <time>2020-03-10T10:39:14.000Z</time>
      </trkpt>
      <trkpt lat="44.19135" lon="4.232">
        <ele>175.60000610352</ele>
        <time>2020-03-10T10:39:17.000Z</time>
      </trkpt>
      <trkpt lat="44.19133" lon="4.23203">
        <ele>175.80000305176</ele>
        <time>2020-03-10T10:39:18.000Z</time>
      </trkpt>
      <trkpt lat="44.19132" lon="4.23206">
        <ele>175.80000305176</ele>
        <time>2020-03-10T10:39:19.000Z</time>
      </trkpt>
      <trkpt lat="44.1913" lon="4.23208">
        <ele>176.19999694824</ele>
        <time>2020-03-10T10:39:20.000Z</time>
      </trkpt>
      <trkpt lat="44.19122" lon="4.23211">
        <ele>177.19999694824</ele>
        <time>2020-03-10T10:39:23.000Z</time>
      </trkpt>
      <trkpt lat="44.19119" lon="4.2321">
        <ele>177.60000610352</ele>
        <time>2020-03-10T10:39:24.000Z</time>
      </trkpt>
      <trkpt lat="44.19117" lon="4.23215">
        <ele>177.80000305176</ele>
        <time>2020-03-10T10:39:26.000Z</time>
      </trkpt>
      <trkpt lat="44.19116" lon="4.2322">
        <ele>177.60000610352</ele>
        <time>2020-03-10T10:39:27.000Z</time>
      </trkpt>
      <trkpt lat="44.19114" lon="4.23224">
        <ele>177.60000610352</ele>
        <time>2020-03-10T10:39:28.000Z</time>
      </trkpt>
      <trkpt lat="44.19107" lon="4.23247">
        <ele>176.60000610352</ele>
        <time>2020-03-10T10:39:32.000Z</time>
      </trkpt>
      <trkpt lat="44.19106" lon="4.23254">
        <ele>176.19999694824</ele>
        <time>2020-03-10T10:39:33.000Z</time>
      </trkpt>
      <trkpt lat="44.19109" lon="4.23267">
        <ele>175</ele>
        <time>2020-03-10T10:39:35.000Z</time>
      </trkpt>
      <trkpt lat="44.19107" lon="4.2328">
        <ele>174.19999694824</ele>
        <time>2020-03-10T10:39:37.000Z</time>
      </trkpt>
      <trkpt lat="44.19106" lon="4.23285">
        <ele>173.39999389648</ele>
        <time>2020-03-10T10:39:38.000Z</time>
      </trkpt>
      <trkpt lat="44.19106" lon="4.23289">
        <ele>172.60000610352</ele>
        <time>2020-03-10T10:39:39.000Z</time>
      </trkpt>
      <trkpt lat="44.19102" lon="4.23292">
        <ele>172.39999389648</ele>
        <time>2020-03-10T10:39:41.000Z</time>
      </trkpt>
      <trkpt lat="44.19095" lon="4.23295">
        <ele>172.39999389648</ele>
        <time>2020-03-10T10:39:43.000Z</time>
      </trkpt>
      <trkpt lat="44.19092" lon="4.23296">
        <ele>172.39999389648</ele>
        <time>2020-03-10T10:39:44.000Z</time>
      </trkpt>
      <trkpt lat="44.1909" lon="4.23297">
        <ele>172.60000610352</ele>
        <time>2020-03-10T10:39:45.000Z</time>
      </trkpt>
      <trkpt lat="44.19087" lon="4.23298">
        <ele>172.60000610352</ele>
        <time>2020-03-10T10:39:46.000Z</time>
      </trkpt>
      <trkpt lat="44.19083" lon="4.23296">
        <ele>173.39999389648</ele>
        <time>2020-03-10T10:39:48.000Z</time>
      </trkpt>
      <trkpt lat="44.1908" lon="4.23295">
        <ele>173.80000305176</ele>
        <time>2020-03-10T10:39:49.000Z</time>
      </trkpt>
      <trkpt lat="44.19078" lon="4.23295">
        <ele>173.80000305176</ele>
        <time>2020-03-10T10:39:50.000Z</time>
      </trkpt>
      <trkpt lat="44.1907" lon="4.233">
        <ele>173.60000610352</ele>
        <time>2020-03-10T10:39:53.000Z</time>
      </trkpt>
      <trkpt lat="44.19058" lon="4.23305">
        <ele>174</ele>
        <time>2020-03-10T10:39:57.000Z</time>
      </trkpt>
      <trkpt lat="44.19051" lon="4.23304">
        <ele>174.19999694824</ele>
        <time>2020-03-10T10:39:59.000Z</time>
      </trkpt>
      <trkpt lat="44.19043" lon="4.23303">
        <ele>174.39999389648</ele>
        <time>2020-03-10T10:40:01.000Z</time>
      </trkpt>
      <trkpt lat="44.19039" lon="4.23302">
        <ele>174.60000610352</ele>
        <time>2020-03-10T10:40:02.000Z</time>
      </trkpt>
      <trkpt lat="44.19027" lon="4.23299">
        <ele>174.60000610352</ele>
        <time>2020-03-10T10:40:07.000Z</time>
      </trkpt>
      <trkpt lat="44.19018" lon="4.23294">
        <ele>173.80000305176</ele>
        <time>2020-03-10T10:40:11.000Z</time>
      </trkpt>
      <trkpt lat="44.19016" lon="4.23294">
        <ele>173.39999389648</ele>
        <time>2020-03-10T10:40:12.000Z</time>
      </trkpt>
      <trkpt lat="44.19011" lon="4.23294">
        <ele>172.60000610352</ele>
        <time>2020-03-10T10:40:14.000Z</time>
      </trkpt>
      <trkpt lat="44.19006" lon="4.23295">
        <ele>171</ele>
        <time>2020-03-10T10:40:16.000Z</time>
      </trkpt>
      <trkpt lat="44.19001" lon="4.23294">
        <ele>170</ele>
        <time>2020-03-10T10:40:18.000Z</time>
      </trkpt>
      <trkpt lat="44.18996" lon="4.23288">
        <ele>170.60000610352</ele>
        <time>2020-03-10T10:40:21.000Z</time>
      </trkpt>
      <trkpt lat="44.18991" lon="4.23279">
        <ele>172</ele>
        <time>2020-03-10T10:40:25.000Z</time>
      </trkpt>
      <trkpt lat="44.18988" lon="4.23275">
        <ele>172</ele>
        <time>2020-03-10T10:40:27.000Z</time>
      </trkpt>
      <trkpt lat="44.18986" lon="4.23271">
        <ele>172.19999694824</ele>
        <time>2020-03-10T10:40:29.000Z</time>
      </trkpt>
      <trkpt lat="44.18981" lon="4.23265">
        <ele>171.80000305176</ele>
        <time>2020-03-10T10:40:32.000Z</time>
      </trkpt>
      <trkpt lat="44.18979" lon="4.23263">
        <ele>171.60000610352</ele>
        <time>2020-03-10T10:40:33.000Z</time>
      </trkpt>
      <trkpt lat="44.18977" lon="4.23258">
        <ele>172</ele>
        <time>2020-03-10T10:40:35.000Z</time>
      </trkpt>
      <trkpt lat="44.18974" lon="4.23252">
        <ele>172.19999694824</ele>
        <time>2020-03-10T10:40:37.000Z</time>
      </trkpt>
      <trkpt lat="44.18972" lon="4.23249">
        <ele>172.19999694824</ele>
        <time>2020-03-10T10:40:38.000Z</time>
      </trkpt>
      <trkpt lat="44.18966" lon="4.23239">
        <ele>172.19999694824</ele>
        <time>2020-03-10T10:40:41.000Z</time>
      </trkpt>
      <trkpt lat="44.1896" lon="4.23233">
        <ele>172</ele>
        <time>2020-03-10T10:40:43.000Z</time>
      </trkpt>
      <trkpt lat="44.18957" lon="4.23224">
        <ele>172.39999389648</ele>
        <time>2020-03-10T10:40:45.000Z</time>
      </trkpt>
      <trkpt lat="44.18955" lon="4.23216">
        <ele>173.19999694824</ele>
        <time>2020-03-10T10:40:47.000Z</time>
      </trkpt>
      <trkpt lat="44.1895" lon="4.23204">
        <ele>173.80000305176</ele>
        <time>2020-03-10T10:40:50.000Z</time>
      </trkpt>
      <trkpt lat="44.18945" lon="4.23197">
        <ele>173.80000305176</ele>
        <time>2020-03-10T10:40:52.000Z</time>
      </trkpt>
      <trkpt lat="44.18943" lon="4.23193">
        <ele>173.39999389648</ele>
        <time>2020-03-10T10:40:53.000Z</time>
      </trkpt>
      <trkpt lat="44.1894" lon="4.23189">
        <ele>172.80000305176</ele>
        <time>2020-03-10T10:40:54.000Z</time>
      </trkpt>
      <trkpt lat="44.1893" lon="4.23176">
        <ele>170.39999389648</ele>
        <time>2020-03-10T10:40:58.000Z</time>
      </trkpt>
      <trkpt lat="44.18921" lon="4.23157">
        <ele>168.19999694824</ele>
        <time>2020-03-10T10:41:03.000Z</time>
      </trkpt>
      <trkpt lat="44.18918" lon="4.23154">
        <ele>167.39999389648</ele>
        <time>2020-03-10T10:41:04.000Z</time>
      </trkpt>
      <trkpt lat="44.18915" lon="4.23143">
        <ele>166.60000610352</ele>
        <time>2020-03-10T10:41:06.000Z</time>
      </trkpt>
      <trkpt lat="44.18915" lon="4.2312">
        <ele>167.19999694824</ele>
        <time>2020-03-10T10:41:09.000Z</time>
      </trkpt>
      <trkpt lat="44.18916" lon="4.23113">
        <ele>167.60000610352</ele>
        <time>2020-03-10T10:41:10.000Z</time>
      </trkpt>
      <trkpt lat="44.18918" lon="4.23107">
        <ele>168.19999694824</ele>
        <time>2020-03-10T10:41:11.000Z</time>
      </trkpt>
      <trkpt lat="44.1892" lon="4.23097">
        <ele>168.80000305176</ele>
        <time>2020-03-10T10:41:13.000Z</time>
      </trkpt>
      <trkpt lat="44.18919" lon="4.23094">
        <ele>169</ele>
        <time>2020-03-10T10:41:14.000Z</time>
      </trkpt>
      <trkpt lat="44.18921" lon="4.23072">
        <ele>169.60000610352</ele>
        <time>2020-03-10T10:41:19.000Z</time>
      </trkpt>
      <trkpt lat="44.18921" lon="4.23067">
        <ele>169.60000610352</ele>
        <time>2020-03-10T10:41:20.000Z</time>
      </trkpt>
      <trkpt lat="44.18921" lon="4.23063">
        <ele>169.80000305176</ele>
        <time>2020-03-10T10:41:21.000Z</time>
      </trkpt>
      <trkpt lat="44.18921" lon="4.23055">
        <ele>169.80000305176</ele>
        <time>2020-03-10T10:41:23.000Z</time>
      </trkpt>
      <trkpt lat="44.18919" lon="4.23052">
        <ele>169.19999694824</ele>
        <time>2020-03-10T10:41:24.000Z</time>
      </trkpt>
      <trkpt lat="44.18916" lon="4.2304">
        <ele>168.60000610352</ele>
        <time>2020-03-10T10:41:26.000Z</time>
      </trkpt>
      <trkpt lat="44.18914" lon="4.23036">
        <ele>168</ele>
        <time>2020-03-10T10:41:28.000Z</time>
      </trkpt>
      <trkpt lat="44.18913" lon="4.2304">
        <ele>167.60000610352</ele>
        <time>2020-03-10T10:41:29.000Z</time>
      </trkpt>
      <trkpt lat="44.1891" lon="4.23045">
        <ele>166.80000305176</ele>
        <time>2020-03-10T10:41:30.000Z</time>
      </trkpt>
      <trkpt lat="44.18909" lon="4.2305">
        <ele>166.60000610352</ele>
        <time>2020-03-10T10:41:31.000Z</time>
      </trkpt>
      <trkpt lat="44.18909" lon="4.23057">
        <ele>166.19999694824</ele>
        <time>2020-03-10T10:41:33.000Z</time>
      </trkpt>
      <trkpt lat="44.18907" lon="4.23056">
        <ele>165.80000305176</ele>
        <time>2020-03-10T10:41:34.000Z</time>
      </trkpt>
      <trkpt lat="44.18905" lon="4.23054">
        <ele>165</ele>
        <time>2020-03-10T10:41:35.000Z</time>
      </trkpt>
      <trkpt lat="44.18902" lon="4.23047">
        <ele>164.60000610352</ele>
        <time>2020-03-10T10:41:38.000Z</time>
      </trkpt>
      <trkpt lat="44.18902" lon="4.23044">
        <ele>164.39999389648</ele>
        <time>2020-03-10T10:41:39.000Z</time>
      </trkpt>
      <trkpt lat="44.189" lon="4.23044">
        <ele>163.80000305176</ele>
        <time>2020-03-10T10:41:40.000Z</time>
      </trkpt>
      <trkpt lat="44.18895" lon="4.2305">
        <ele>162.39999389648</ele>
        <time>2020-03-10T10:41:42.000Z</time>
      </trkpt>
      <trkpt lat="44.18892" lon="4.23064">
        <ele>161.19999694824</ele>
        <time>2020-03-10T10:41:45.000Z</time>
      </trkpt>
      <trkpt lat="44.18893" lon="4.23071">
        <ele>161.60000610352</ele>
        <time>2020-03-10T10:41:47.000Z</time>
      </trkpt>
      <trkpt lat="44.18893" lon="4.23078">
        <ele>161.60000610352</ele>
        <time>2020-03-10T10:41:49.000Z</time>
      </trkpt>
      <trkpt lat="44.18893" lon="4.23086">
        <ele>161.19999694824</ele>
        <time>2020-03-10T10:41:51.000Z</time>
      </trkpt>
      <trkpt lat="44.18892" lon="4.23094">
        <ele>161</ele>
        <time>2020-03-10T10:41:54.000Z</time>
      </trkpt>
      <trkpt lat="44.18894" lon="4.23098">
        <ele>161.60000610352</ele>
        <time>2020-03-10T10:41:56.000Z</time>
      </trkpt>
      <trkpt lat="44.18896" lon="4.23093">
        <ele>162</ele>
        <time>2020-03-10T10:41:58.000Z</time>
      </trkpt>
      <trkpt lat="44.189" lon="4.23085">
        <ele>163.39999389648</ele>
        <time>2020-03-10T10:42:02.000Z</time>
      </trkpt>
      <trkpt lat="44.18903" lon="4.23094">
        <ele>164</ele>
        <time>2020-03-10T10:42:05.000Z</time>
      </trkpt>
      <trkpt lat="44.18904" lon="4.23096">
        <ele>164.39999389648</ele>
        <time>2020-03-10T10:42:06.000Z</time>
      </trkpt>
      <trkpt lat="44.18905" lon="4.231">
        <ele>164.80000305176</ele>
        <time>2020-03-10T10:42:07.000Z</time>
      </trkpt>
      <trkpt lat="44.18906" lon="4.23106">
        <ele>165</ele>
        <time>2020-03-10T10:42:09.000Z</time>
      </trkpt>
      <trkpt lat="44.18906" lon="4.2311">
        <ele>164.80000305176</ele>
        <time>2020-03-10T10:42:10.000Z</time>
      </trkpt>
      <trkpt lat="44.18906" lon="4.23121">
        <ele>164.60000610352</ele>
        <time>2020-03-10T10:42:13.000Z</time>
      </trkpt>
      <trkpt lat="44.18906" lon="4.23133">
        <ele>164.39999389648</ele>
        <time>2020-03-10T10:42:16.000Z</time>
      </trkpt>
      <trkpt lat="44.18904" lon="4.23143">
        <ele>163.60000610352</ele>
        <time>2020-03-10T10:42:20.000Z</time>
      </trkpt>
      <trkpt lat="44.18896" lon="4.23139">
        <ele>161.39999389648</ele>
        <time>2020-03-10T10:42:23.000Z</time>
      </trkpt>
      <trkpt lat="44.18893" lon="4.23137">
        <ele>160.39999389648</ele>
        <time>2020-03-10T10:42:24.000Z</time>
      </trkpt>
      <trkpt lat="44.18885" lon="4.23131">
        <ele>158.19999694824</ele>
        <time>2020-03-10T10:42:27.000Z</time>
      </trkpt>
      <trkpt lat="44.18882" lon="4.23139">
        <ele>157.19999694824</ele>
        <time>2020-03-10T10:42:29.000Z</time>
      </trkpt>
      <trkpt lat="44.18881" lon="4.23141">
        <ele>156.60000610352</ele>
        <time>2020-03-10T10:42:30.000Z</time>
      </trkpt>
      <trkpt lat="44.18879" lon="4.23141">
        <ele>156</ele>
        <time>2020-03-10T10:42:31.000Z</time>
      </trkpt>
      <trkpt lat="44.18878" lon="4.23138">
        <ele>155.80000305176</ele>
        <time>2020-03-10T10:42:32.000Z</time>
      </trkpt>
      <trkpt lat="44.18875" lon="4.23132">
        <ele>155.19999694824</ele>
        <time>2020-03-10T10:42:33.000Z</time>
      </trkpt>
      <trkpt lat="44.18874" lon="4.23129">
        <ele>155.19999694824</ele>
        <time>2020-03-10T10:42:34.000Z</time>
      </trkpt>
      <trkpt lat="44.18873" lon="4.23125">
        <ele>155</ele>
        <time>2020-03-10T10:42:35.000Z</time>
      </trkpt>
      <trkpt lat="44.18872" lon="4.23121">
        <ele>154.60000610352</ele>
        <time>2020-03-10T10:42:36.000Z</time>
      </trkpt>
      <trkpt lat="44.18869" lon="4.23117">
        <ele>154</ele>
        <time>2020-03-10T10:42:37.000Z</time>
      </trkpt>
      <trkpt lat="44.18866" lon="4.23113">
        <ele>153.19999694824</ele>
        <time>2020-03-10T10:42:38.000Z</time>
      </trkpt>
      <trkpt lat="44.1886" lon="4.2311">
        <ele>151.80000305176</ele>
        <time>2020-03-10T10:42:39.000Z</time>
      </trkpt>
      <trkpt lat="44.18856" lon="4.23105">
        <ele>151.39999389648</ele>
        <time>2020-03-10T10:42:40.000Z</time>
      </trkpt>
      <trkpt lat="44.18853" lon="4.23099">
        <ele>151</ele>
        <time>2020-03-10T10:42:41.000Z</time>
      </trkpt>
      <trkpt lat="44.18851" lon="4.23094">
        <ele>150.80000305176</ele>
        <time>2020-03-10T10:42:42.000Z</time>
      </trkpt>
      <trkpt lat="44.1885" lon="4.2309">
        <ele>150.80000305176</ele>
        <time>2020-03-10T10:42:43.000Z</time>
      </trkpt>
      <trkpt lat="44.1885" lon="4.23086">
        <ele>150.80000305176</ele>
        <time>2020-03-10T10:42:44.000Z</time>
      </trkpt>
      <trkpt lat="44.18849" lon="4.23082">
        <ele>150.80000305176</ele>
        <time>2020-03-10T10:42:45.000Z</time>
      </trkpt>
      <trkpt lat="44.1885" lon="4.23077">
        <ele>150.80000305176</ele>
        <time>2020-03-10T10:42:46.000Z</time>
      </trkpt>
      <trkpt lat="44.18848" lon="4.23072">
        <ele>150.80000305176</ele>
        <time>2020-03-10T10:42:47.000Z</time>
      </trkpt>
      <trkpt lat="44.18844" lon="4.23064">
        <ele>150.39999389648</ele>
        <time>2020-03-10T10:42:49.000Z</time>
      </trkpt>
      <trkpt lat="44.18842" lon="4.23062">
        <ele>150</ele>
        <time>2020-03-10T10:42:50.000Z</time>
      </trkpt>
      <trkpt lat="44.1884" lon="4.23061">
        <ele>149.80000305176</ele>
        <time>2020-03-10T10:42:51.000Z</time>
      </trkpt>
      <trkpt lat="44.18839" lon="4.23064">
        <ele>149.60000610352</ele>
        <time>2020-03-10T10:42:52.000Z</time>
      </trkpt>
      <trkpt lat="44.18835" lon="4.23071">
        <ele>149</ele>
        <time>2020-03-10T10:42:53.000Z</time>
      </trkpt>
      <trkpt lat="44.18831" lon="4.23078">
        <ele>148.39999389648</ele>
        <time>2020-03-10T10:42:54.000Z</time>
      </trkpt>
      <trkpt lat="44.18823" lon="4.23088">
        <ele>147</ele>
        <time>2020-03-10T10:42:56.000Z</time>
      </trkpt>
      <trkpt lat="44.18821" lon="4.23094">
        <ele>146.60000610352</ele>
        <time>2020-03-10T10:42:57.000Z</time>
      </trkpt>
      <trkpt lat="44.18822" lon="4.23099">
        <ele>146.60000610352</ele>
        <time>2020-03-10T10:42:58.000Z</time>
      </trkpt>
      <trkpt lat="44.18823" lon="4.23103">
        <ele>146.60000610352</ele>
        <time>2020-03-10T10:42:59.000Z</time>
      </trkpt>
      <trkpt lat="44.18823" lon="4.23108">
        <ele>146.60000610352</ele>
        <time>2020-03-10T10:43:00.000Z</time>
      </trkpt>
      <trkpt lat="44.18822" lon="4.23112">
        <ele>146.39999389648</ele>
        <time>2020-03-10T10:43:01.000Z</time>
      </trkpt>
      <trkpt lat="44.18823" lon="4.2312">
        <ele>146.19999694824</ele>
        <time>2020-03-10T10:43:03.000Z</time>
      </trkpt>
      <trkpt lat="44.18823" lon="4.23124">
        <ele>146</ele>
        <time>2020-03-10T10:43:04.000Z</time>
      </trkpt>
      <trkpt lat="44.18823" lon="4.23134">
        <ele>145.39999389648</ele>
        <time>2020-03-10T10:43:06.000Z</time>
      </trkpt>
      <trkpt lat="44.18825" lon="4.23142">
        <ele>145.19999694824</ele>
        <time>2020-03-10T10:43:08.000Z</time>
      </trkpt>
      <trkpt lat="44.18828" lon="4.23153">
        <ele>145.19999694824</ele>
        <time>2020-03-10T10:43:10.000Z</time>
      </trkpt>
      <trkpt lat="44.18832" lon="4.2317">
        <ele>145</ele>
        <time>2020-03-10T10:43:14.000Z</time>
      </trkpt>
      <trkpt lat="44.18834" lon="4.23172">
        <ele>145.19999694824</ele>
        <time>2020-03-10T10:43:15.000Z</time>
      </trkpt>
      <trkpt lat="44.18838" lon="4.23173">
        <ele>145.60000610352</ele>
        <time>2020-03-10T10:43:18.000Z</time>
      </trkpt>
      <trkpt lat="44.18838" lon="4.23171">
        <ele>145.80000305176</ele>
        <time>2020-03-10T10:43:19.000Z</time>
      </trkpt>
      <trkpt lat="44.1884" lon="4.23165">
        <ele>146.39999389648</ele>
        <time>2020-03-10T10:43:23.000Z</time>
      </trkpt>
      <trkpt lat="44.18841" lon="4.23161">
        <ele>146.60000610352</ele>
        <time>2020-03-10T10:43:25.000Z</time>
      </trkpt>
      <trkpt lat="44.18841" lon="4.23159">
        <ele>146.80000305176</ele>
        <time>2020-03-10T10:43:27.000Z</time>
      </trkpt>
      <trkpt lat="44.18841" lon="4.23158">
        <ele>146.80000305176</ele>
        <time>2020-03-10T10:43:28.000Z</time>
      </trkpt>
      <trkpt lat="44.18842" lon="4.23156">
        <ele>147</ele>
        <time>2020-03-10T10:43:29.000Z</time>
      </trkpt>
      <trkpt lat="44.18843" lon="4.23155">
        <ele>147.39999389648</ele>
        <time>2020-03-10T10:43:30.000Z</time>
      </trkpt>
      <trkpt lat="44.18845" lon="4.23153">
        <ele>147.60000610352</ele>
        <time>2020-03-10T10:43:31.000Z</time>
      </trkpt>
      <trkpt lat="44.18846" lon="4.23151">
        <ele>147.80000305176</ele>
        <time>2020-03-10T10:43:32.000Z</time>
      </trkpt>
      <trkpt lat="44.18846" lon="4.23149">
        <ele>148</ele>
        <time>2020-03-10T10:43:33.000Z</time>
      </trkpt>
      <trkpt lat="44.18845" lon="4.23142">
        <ele>148.19999694824</ele>
        <time>2020-03-10T10:43:35.000Z</time>
      </trkpt>
      <trkpt lat="44.18845" lon="4.23136">
        <ele>148.39999389648</ele>
        <time>2020-03-10T10:43:37.000Z</time>
      </trkpt>
      <trkpt lat="44.18844" lon="4.23134">
        <ele>148.39999389648</ele>
        <time>2020-03-10T10:43:38.000Z</time>
      </trkpt>
      <trkpt lat="44.18844" lon="4.23132">
        <ele>148.60000610352</ele>
        <time>2020-03-10T10:43:39.000Z</time>
      </trkpt>
      <trkpt lat="44.18845" lon="4.23128">
        <ele>148.80000305176</ele>
        <time>2020-03-10T10:43:41.000Z</time>
      </trkpt>
      <trkpt lat="44.18845" lon="4.23128">
        <ele>148.80000305176</ele>
        <time>2020-03-10T10:43:43.000Z</time>
      </trkpt>
      <trkpt lat="44.18847" lon="4.23129">
        <ele>149</ele>
        <time>2020-03-10T10:43:45.000Z</time>
      </trkpt>
      <trkpt lat="44.18849" lon="4.2313">
        <ele>149.39999389648</ele>
        <time>2020-03-10T10:43:47.000Z</time>
      </trkpt>
      <trkpt lat="44.18853" lon="4.23134">
        <ele>149.80000305176</ele>
        <time>2020-03-10T10:43:50.000Z</time>
      </trkpt>
      <trkpt lat="44.18855" lon="4.23135">
        <ele>150</ele>
        <time>2020-03-10T10:43:51.000Z</time>
      </trkpt>
      <trkpt lat="44.18857" lon="4.23143">
        <ele>149.80000305176</ele>
        <time>2020-03-10T10:43:54.000Z</time>
      </trkpt>
      <trkpt lat="44.18858" lon="4.23144">
        <ele>150</ele>
        <time>2020-03-10T10:43:55.000Z</time>
      </trkpt>
      <trkpt lat="44.18867" lon="4.23146">
        <ele>152</ele>
        <time>2020-03-10T10:43:59.000Z</time>
      </trkpt>
      <trkpt lat="44.18869" lon="4.23148">
        <ele>152.60000610352</ele>
        <time>2020-03-10T10:44:00.000Z</time>
      </trkpt>
      <trkpt lat="44.18873" lon="4.2315">
        <ele>153.80000305176</ele>
        <time>2020-03-10T10:44:02.000Z</time>
      </trkpt>
      <trkpt lat="44.18874" lon="4.23152">
        <ele>154</ele>
        <time>2020-03-10T10:44:03.000Z</time>
      </trkpt>
      <trkpt lat="44.18875" lon="4.23158">
        <ele>154</ele>
        <time>2020-03-10T10:44:05.000Z</time>
      </trkpt>
      <trkpt lat="44.18876" lon="4.23163">
        <ele>154</ele>
        <time>2020-03-10T10:44:07.000Z</time>
      </trkpt>
      <trkpt lat="44.18875" lon="4.23166">
        <ele>153.80000305176</ele>
        <time>2020-03-10T10:44:09.000Z</time>
      </trkpt>
      <trkpt lat="44.18876" lon="4.23171">
        <ele>153.80000305176</ele>
        <time>2020-03-10T10:44:11.000Z</time>
      </trkpt>
      <trkpt lat="44.18877" lon="4.23172">
        <ele>154</ele>
        <time>2020-03-10T10:44:12.000Z</time>
      </trkpt>
      <trkpt lat="44.18879" lon="4.23174">
        <ele>154.39999389648</ele>
        <time>2020-03-10T10:44:14.000Z</time>
      </trkpt>
      <trkpt lat="44.18881" lon="4.23178">
        <ele>155</ele>
        <time>2020-03-10T10:44:16.000Z</time>
      </trkpt>
      <trkpt lat="44.18885" lon="4.23182">
        <ele>156</ele>
        <time>2020-03-10T10:44:20.000Z</time>
      </trkpt>
      <trkpt lat="44.18888" lon="4.23187">
        <ele>156.80000305176</ele>
        <time>2020-03-10T10:44:23.000Z</time>
      </trkpt>
      <trkpt lat="44.18893" lon="4.2319">
        <ele>158</ele>
        <time>2020-03-10T10:44:25.000Z</time>
      </trkpt>
      <trkpt lat="44.18894" lon="4.23191">
        <ele>158.39999389648</ele>
        <time>2020-03-10T10:44:26.000Z</time>
      </trkpt>
      <trkpt lat="44.18896" lon="4.23194">
        <ele>158.80000305176</ele>
        <time>2020-03-10T10:44:27.000Z</time>
      </trkpt>
      <trkpt lat="44.18896" lon="4.23206">
        <ele>157.19999694824</ele>
        <time>2020-03-10T10:44:30.000Z</time>
      </trkpt>
      <trkpt lat="44.18903" lon="4.23216">
        <ele>157.80000305176</ele>
        <time>2020-03-10T10:44:36.000Z</time>
      </trkpt>
      <trkpt lat="44.18906" lon="4.23221">
        <ele>158</ele>
        <time>2020-03-10T10:44:38.000Z</time>
      </trkpt>
      <trkpt lat="44.18909" lon="4.23228">
        <ele>157.60000610352</ele>
        <time>2020-03-10T10:44:40.000Z</time>
      </trkpt>
      <trkpt lat="44.18912" lon="4.23238">
        <ele>157</ele>
        <time>2020-03-10T10:44:43.000Z</time>
      </trkpt>
      <trkpt lat="44.18914" lon="4.23241">
        <ele>157.39999389648</ele>
        <time>2020-03-10T10:44:45.000Z</time>
      </trkpt>
      <trkpt lat="44.18922" lon="4.23249">
        <ele>158.39999389648</ele>
        <time>2020-03-10T10:44:50.000Z</time>
      </trkpt>
      <trkpt lat="44.18924" lon="4.23251">
        <ele>158.80000305176</ele>
        <time>2020-03-10T10:44:51.000Z</time>
      </trkpt>
      <trkpt lat="44.18932" lon="4.23258">
        <ele>160.19999694824</ele>
        <time>2020-03-10T10:44:55.000Z</time>
      </trkpt>
      <trkpt lat="44.18933" lon="4.2326">
        <ele>160.19999694824</ele>
        <time>2020-03-10T10:44:56.000Z</time>
      </trkpt>
      <trkpt lat="44.18932" lon="4.23275">
        <ele>157.80000305176</ele>
        <time>2020-03-10T10:45:00.000Z</time>
      </trkpt>
      <trkpt lat="44.18931" lon="4.23284">
        <ele>156</ele>
        <time>2020-03-10T10:45:04.000Z</time>
      </trkpt>
      <trkpt lat="44.18926" lon="4.2328">
        <ele>155.39999389648</ele>
        <time>2020-03-10T10:45:06.000Z</time>
      </trkpt>
      <trkpt lat="44.18925" lon="4.23279">
        <ele>155.39999389648</ele>
        <time>2020-03-10T10:45:07.000Z</time>
      </trkpt>
      <trkpt lat="44.18925" lon="4.23279">
        <ele>155.39999389648</ele>
        <time>2020-03-10T10:45:08.000Z</time>
      </trkpt>
      <trkpt lat="44.18921" lon="4.23272">
        <ele>155.19999694824</ele>
        <time>2020-03-10T10:45:39.000Z</time>
      </trkpt>
      <trkpt lat="44.18921" lon="4.23269">
        <ele>155.60000610352</ele>
        <time>2020-03-10T10:45:40.000Z</time>
      </trkpt>
      <trkpt lat="44.18919" lon="4.23263">
        <ele>155.80000305176</ele>
        <time>2020-03-10T10:45:43.000Z</time>
      </trkpt>
      <trkpt lat="44.18917" lon="4.23261">
        <ele>155.60000610352</ele>
        <time>2020-03-10T10:45:44.000Z</time>
      </trkpt>
      <trkpt lat="44.1891" lon="4.2325">
        <ele>154.80000305176</ele>
        <time>2020-03-10T10:45:47.000Z</time>
      </trkpt>
      <trkpt lat="44.18902" lon="4.23241">
        <ele>153.80000305176</ele>
        <time>2020-03-10T10:45:50.000Z</time>
      </trkpt>
      <trkpt lat="44.18903" lon="4.23245">
        <ele>153.60000610352</ele>
        <time>2020-03-10T10:45:51.000Z</time>
      </trkpt>
      <trkpt lat="44.18903" lon="4.23251">
        <ele>152.80000305176</ele>
        <time>2020-03-10T10:45:52.000Z</time>
      </trkpt>
      <trkpt lat="44.18906" lon="4.23256">
        <ele>153</ele>
        <time>2020-03-10T10:45:53.000Z</time>
      </trkpt>
      <trkpt lat="44.18908" lon="4.23259">
        <ele>153.19999694824</ele>
        <time>2020-03-10T10:45:54.000Z</time>
      </trkpt>
      <trkpt lat="44.18909" lon="4.23265">
        <ele>152.60000610352</ele>
        <time>2020-03-10T10:45:55.000Z</time>
      </trkpt>
      <trkpt lat="44.1891" lon="4.23273">
        <ele>152.19999694824</ele>
        <time>2020-03-10T10:45:56.000Z</time>
      </trkpt>
      <trkpt lat="44.18912" lon="4.23279">
        <ele>151.80000305176</ele>
        <time>2020-03-10T10:45:57.000Z</time>
      </trkpt>
      <trkpt lat="44.18914" lon="4.23285">
        <ele>151.19999694824</ele>
        <time>2020-03-10T10:45:58.000Z</time>
      </trkpt>
      <trkpt lat="44.18916" lon="4.23287">
        <ele>151</ele>
        <time>2020-03-10T10:45:59.000Z</time>
      </trkpt>
      <trkpt lat="44.18918" lon="4.23291">
        <ele>150.80000305176</ele>
        <time>2020-03-10T10:46:00.000Z</time>
      </trkpt>
      <trkpt lat="44.18922" lon="4.23297">
        <ele>150.19999694824</ele>
        <time>2020-03-10T10:46:03.000Z</time>
      </trkpt>
      <trkpt lat="44.18932" lon="4.23305">
        <ele>151</ele>
        <time>2020-03-10T10:46:08.000Z</time>
      </trkpt>
      <trkpt lat="44.18937" lon="4.23309">
        <ele>151.60000610352</ele>
        <time>2020-03-10T10:46:10.000Z</time>
      </trkpt>
      <trkpt lat="44.18948" lon="4.23321">
        <ele>151.39999389648</ele>
        <time>2020-03-10T10:46:13.000Z</time>
      </trkpt>
      <trkpt lat="44.18953" lon="4.23326">
        <ele>151.19999694824</ele>
        <time>2020-03-10T10:46:14.000Z</time>
      </trkpt>
      <trkpt lat="44.18965" lon="4.23344">
        <ele>149</ele>
        <time>2020-03-10T10:46:17.000Z</time>
      </trkpt>
      <trkpt lat="44.18965" lon="4.23349">
        <ele>147.80000305176</ele>
        <time>2020-03-10T10:46:18.000Z</time>
      </trkpt>
      <trkpt lat="44.18962" lon="4.23352">
        <ele>146.60000610352</ele>
        <time>2020-03-10T10:46:19.000Z</time>
      </trkpt>
      <trkpt lat="44.18956" lon="4.23351">
        <ele>145.80000305176</ele>
        <time>2020-03-10T10:46:20.000Z</time>
      </trkpt>
      <trkpt lat="44.18952" lon="4.23348">
        <ele>145.60000610352</ele>
        <time>2020-03-10T10:46:21.000Z</time>
      </trkpt>
      <trkpt lat="44.18948" lon="4.23346">
        <ele>145.39999389648</ele>
        <time>2020-03-10T10:46:22.000Z</time>
      </trkpt>
      <trkpt lat="44.18945" lon="4.23343">
        <ele>145.39999389648</ele>
        <time>2020-03-10T10:46:23.000Z</time>
      </trkpt>
      <trkpt lat="44.18938" lon="4.23339">
        <ele>144.39999389648</ele>
        <time>2020-03-10T10:46:25.000Z</time>
      </trkpt>
      <trkpt lat="44.18931" lon="4.23334">
        <ele>144</ele>
        <time>2020-03-10T10:46:27.000Z</time>
      </trkpt>
      <trkpt lat="44.18929" lon="4.23332">
        <ele>143.80000305176</ele>
        <time>2020-03-10T10:46:28.000Z</time>
      </trkpt>
      <trkpt lat="44.18919" lon="4.23319">
        <ele>144</ele>
        <time>2020-03-10T10:46:32.000Z</time>
      </trkpt>
      <trkpt lat="44.18915" lon="4.23317">
        <ele>143.60000610352</ele>
        <time>2020-03-10T10:46:33.000Z</time>
      </trkpt>
      <trkpt lat="44.18904" lon="4.23304">
        <ele>143.60000610352</ele>
        <time>2020-03-10T10:46:36.000Z</time>
      </trkpt>
      <trkpt lat="44.18901" lon="4.23297">
        <ele>144.39999389648</ele>
        <time>2020-03-10T10:46:37.000Z</time>
      </trkpt>
      <trkpt lat="44.18896" lon="4.23285">
        <ele>146</ele>
        <time>2020-03-10T10:46:39.000Z</time>
      </trkpt>
      <trkpt lat="44.18894" lon="4.2328">
        <ele>146.39999389648</ele>
        <time>2020-03-10T10:46:40.000Z</time>
      </trkpt>
      <trkpt lat="44.18886" lon="4.23265">
        <ele>146.60000610352</ele>
        <time>2020-03-10T10:46:42.000Z</time>
      </trkpt>
      <trkpt lat="44.18881" lon="4.2326">
        <ele>145.60000610352</ele>
        <time>2020-03-10T10:46:43.000Z</time>
      </trkpt>
      <trkpt lat="44.18876" lon="4.23256">
        <ele>145</ele>
        <time>2020-03-10T10:46:45.000Z</time>
      </trkpt>
      <trkpt lat="44.18876" lon="4.23256">
        <ele>144.80000305176</ele>
        <time>2020-03-10T10:46:46.000Z</time>
      </trkpt>
      <trkpt lat="44.18875" lon="4.23253">
        <ele>145</ele>
        <time>2020-03-10T10:46:57.000Z</time>
      </trkpt>
      <trkpt lat="44.18871" lon="4.23247">
        <ele>144.60000610352</ele>
        <time>2020-03-10T10:46:59.000Z</time>
      </trkpt>
      <trkpt lat="44.18858" lon="4.23237">
        <ele>142.39999389648</ele>
        <time>2020-03-10T10:47:03.000Z</time>
      </trkpt>
      <trkpt lat="44.18852" lon="4.23233">
        <ele>142.39999389648</ele>
        <time>2020-03-10T10:47:04.000Z</time>
      </trkpt>
      <trkpt lat="44.18847" lon="4.23226">
        <ele>142.39999389648</ele>
        <time>2020-03-10T10:47:05.000Z</time>
      </trkpt>
      <trkpt lat="44.18842" lon="4.23221">
        <ele>142.39999389648</ele>
        <time>2020-03-10T10:47:06.000Z</time>
      </trkpt>
      <trkpt lat="44.18836" lon="4.23219">
        <ele>141.80000305176</ele>
        <time>2020-03-10T10:47:07.000Z</time>
      </trkpt>
      <trkpt lat="44.1883" lon="4.23216">
        <ele>141.39999389648</ele>
        <time>2020-03-10T10:47:08.000Z</time>
      </trkpt>
      <trkpt lat="44.18825" lon="4.23212">
        <ele>141.19999694824</ele>
        <time>2020-03-10T10:47:09.000Z</time>
      </trkpt>
      <trkpt lat="44.18811" lon="4.23203">
        <ele>140.39999389648</ele>
        <time>2020-03-10T10:47:12.000Z</time>
      </trkpt>
      <trkpt lat="44.18807" lon="4.23199">
        <ele>140.39999389648</ele>
        <time>2020-03-10T10:47:13.000Z</time>
      </trkpt>
      <trkpt lat="44.18798" lon="4.23192">
        <ele>139.80000305176</ele>
        <time>2020-03-10T10:47:15.000Z</time>
      </trkpt>
      <trkpt lat="44.18774" lon="4.23178">
        <ele>137.39999389648</ele>
        <time>2020-03-10T10:47:20.000Z</time>
      </trkpt>
      <trkpt lat="44.18769" lon="4.23182">
        <ele>137</ele>
        <time>2020-03-10T10:47:21.000Z</time>
      </trkpt>
      <trkpt lat="44.18754" lon="4.23192">
        <ele>136.39999389648</ele>
        <time>2020-03-10T10:47:24.000Z</time>
      </trkpt>
      <trkpt lat="44.18748" lon="4.23194">
        <ele>136.39999389648</ele>
        <time>2020-03-10T10:47:25.000Z</time>
      </trkpt>
      <trkpt lat="44.18744" lon="4.23196">
        <ele>136.19999694824</ele>
        <time>2020-03-10T10:47:26.000Z</time>
      </trkpt>
      <trkpt lat="44.18729" lon="4.23198">
        <ele>135.80000305176</ele>
        <time>2020-03-10T10:47:29.000Z</time>
      </trkpt>
      <trkpt lat="44.18725" lon="4.23195">
        <ele>135.80000305176</ele>
        <time>2020-03-10T10:47:30.000Z</time>
      </trkpt>
      <trkpt lat="44.18713" lon="4.23191">
        <ele>135.39999389648</ele>
        <time>2020-03-10T10:47:33.000Z</time>
      </trkpt>
      <trkpt lat="44.18703" lon="4.2318">
        <ele>135.39999389648</ele>
        <time>2020-03-10T10:47:36.000Z</time>
      </trkpt>
      <trkpt lat="44.18699" lon="4.23176">
        <ele>135.39999389648</ele>
        <time>2020-03-10T10:47:37.000Z</time>
      </trkpt>
      <trkpt lat="44.18695" lon="4.2317">
        <ele>135.39999389648</ele>
        <time>2020-03-10T10:47:38.000Z</time>
      </trkpt>
      <trkpt lat="44.18696" lon="4.23159">
        <ele>135.39999389648</ele>
        <time>2020-03-10T10:47:40.000Z</time>
      </trkpt>
      <trkpt lat="44.18689" lon="4.23148">
        <ele>135.39999389648</ele>
        <time>2020-03-10T10:47:43.000Z</time>
      </trkpt>
      <trkpt lat="44.18678" lon="4.23128">
        <ele>135.39999389648</ele>
        <time>2020-03-10T10:47:47.000Z</time>
      </trkpt>
      <trkpt lat="44.18674" lon="4.23117">
        <ele>135.39999389648</ele>
        <time>2020-03-10T10:47:49.000Z</time>
      </trkpt>
      <trkpt lat="44.18666" lon="4.23102">
        <ele>135.80000305176</ele>
        <time>2020-03-10T10:47:52.000Z</time>
      </trkpt>
      <trkpt lat="44.18662" lon="4.23098">
        <ele>136</ele>
        <time>2020-03-10T10:47:53.000Z</time>
      </trkpt>
      <trkpt lat="44.18656" lon="4.23087">
        <ele>136.19999694824</ele>
        <time>2020-03-10T10:47:55.000Z</time>
      </trkpt>
      <trkpt lat="44.18651" lon="4.23083">
        <ele>136.39999389648</ele>
        <time>2020-03-10T10:47:56.000Z</time>
      </trkpt>
      <trkpt lat="44.18648" lon="4.23079">
        <ele>136.39999389648</ele>
        <time>2020-03-10T10:47:57.000Z</time>
      </trkpt>
      <trkpt lat="44.18642" lon="4.2307">
        <ele>136.80000305176</ele>
        <time>2020-03-10T10:47:59.000Z</time>
      </trkpt>
      <trkpt lat="44.18629" lon="4.23049">
        <ele>137.39999389648</ele>
        <time>2020-03-10T10:48:03.000Z</time>
      </trkpt>
      <trkpt lat="44.18615" lon="4.23025">
        <ele>138</ele>
        <time>2020-03-10T10:48:08.000Z</time>
      </trkpt>
      <trkpt lat="44.18607" lon="4.23019">
        <ele>137.60000610352</ele>
        <time>2020-03-10T10:48:10.000Z</time>
      </trkpt>
      <trkpt lat="44.18603" lon="4.23017">
        <ele>137.39999389648</ele>
        <time>2020-03-10T10:48:11.000Z</time>
      </trkpt>
      <trkpt lat="44.18597" lon="4.23012">
        <ele>137.19999694824</ele>
        <time>2020-03-10T10:48:12.000Z</time>
      </trkpt>
      <trkpt lat="44.18579" lon="4.23006">
        <ele>136</ele>
        <time>2020-03-10T10:48:15.000Z</time>
      </trkpt>
      <trkpt lat="44.18573" lon="4.23003">
        <ele>135.80000305176</ele>
        <time>2020-03-10T10:48:16.000Z</time>
      </trkpt>
      <trkpt lat="44.1856" lon="4.22984">
        <ele>135</ele>
        <time>2020-03-10T10:48:20.000Z</time>
      </trkpt>
      <trkpt lat="44.18565" lon="4.2297">
        <ele>135</ele>
        <time>2020-03-10T10:48:23.000Z</time>
      </trkpt>
      <trkpt lat="44.18567" lon="4.22966">
        <ele>134.80000305176</ele>
        <time>2020-03-10T10:48:24.000Z</time>
      </trkpt>
      <trkpt lat="44.18568" lon="4.22969">
        <ele>135</ele>
        <time>2020-03-10T10:48:27.000Z</time>
      </trkpt>
      <trkpt lat="44.18571" lon="4.22984">
        <ele>135.39999389648</ele>
        <time>2020-03-10T10:48:30.000Z</time>
      </trkpt>
      <trkpt lat="44.18574" lon="4.22987">
        <ele>135.60000610352</ele>
        <time>2020-03-10T10:48:31.000Z</time>
      </trkpt>
      <trkpt lat="44.18591" lon="4.23003">
        <ele>136.60000610352</ele>
        <time>2020-03-10T10:48:37.000Z</time>
      </trkpt>
      <trkpt lat="44.18612" lon="4.23023">
        <ele>137.80000305176</ele>
        <time>2020-03-10T10:48:43.000Z</time>
      </trkpt>
      <trkpt lat="44.18622" lon="4.23029">
        <ele>138.19999694824</ele>
        <time>2020-03-10T10:48:47.000Z</time>
      </trkpt>
      <trkpt lat="44.18623" lon="4.23034">
        <ele>138</ele>
        <time>2020-03-10T10:48:48.000Z</time>
      </trkpt>
      <trkpt lat="44.1863" lon="4.23045">
        <ele>137.60000610352</ele>
        <time>2020-03-10T10:48:50.000Z</time>
      </trkpt>
      <trkpt lat="44.18645" lon="4.23067">
        <ele>137</ele>
        <time>2020-03-10T10:48:55.000Z</time>
      </trkpt>
      <trkpt lat="44.18657" lon="4.23097">
        <ele>135.80000305176</ele>
        <time>2020-03-10T10:49:00.000Z</time>
      </trkpt>
      <trkpt lat="44.18671" lon="4.23121">
        <ele>135.39999389648</ele>
        <time>2020-03-10T10:49:05.000Z</time>
      </trkpt>
      <trkpt lat="44.18683" lon="4.23141">
        <ele>135.39999389648</ele>
        <time>2020-03-10T10:49:10.000Z</time>
      </trkpt>
      <trkpt lat="44.18688" lon="4.23146">
        <ele>135.39999389648</ele>
        <time>2020-03-10T10:49:12.000Z</time>
      </trkpt>
      <trkpt lat="44.187" lon="4.23153">
        <ele>135.60000610352</ele>
        <time>2020-03-10T10:49:15.000Z</time>
      </trkpt>
      <trkpt lat="44.18726" lon="4.23159">
        <ele>136.19999694824</ele>
        <time>2020-03-10T10:49:20.000Z</time>
      </trkpt>
      <trkpt lat="44.18745" lon="4.23164">
        <ele>136.60000610352</ele>
        <time>2020-03-10T10:49:23.000Z</time>
      </trkpt>
      <trkpt lat="44.18777" lon="4.23179">
        <ele>137.60000610352</ele>
        <time>2020-03-10T10:49:31.000Z</time>
      </trkpt>
      <trkpt lat="44.188" lon="4.23182">
        <ele>140.39999389648</ele>
        <time>2020-03-10T10:49:35.000Z</time>
      </trkpt>
      <trkpt lat="44.18805" lon="4.2318">
        <ele>141</ele>
        <time>2020-03-10T10:49:36.000Z</time>
      </trkpt>
      <trkpt lat="44.18809" lon="4.23173">
        <ele>142</ele>
        <time>2020-03-10T10:49:38.000Z</time>
      </trkpt>
      <trkpt lat="44.1881" lon="4.2317">
        <ele>142.19999694824</ele>
        <time>2020-03-10T10:49:39.000Z</time>
      </trkpt>
      <trkpt lat="44.1881" lon="4.23158">
        <ele>142.60000610352</ele>
        <time>2020-03-10T10:49:42.000Z</time>
      </trkpt>
      <trkpt lat="44.1881" lon="4.2315">
        <ele>142.80000305176</ele>
        <time>2020-03-10T10:49:44.000Z</time>
      </trkpt>
      <trkpt lat="44.1881" lon="4.23145">
        <ele>143</ele>
        <time>2020-03-10T10:49:45.000Z</time>
      </trkpt>
      <trkpt lat="44.1881" lon="4.23128">
        <ele>144</ele>
        <time>2020-03-10T10:49:49.000Z</time>
      </trkpt>
      <trkpt lat="44.1881" lon="4.23124">
        <ele>144</ele>
        <time>2020-03-10T10:49:50.000Z</time>
      </trkpt>
      <trkpt lat="44.1881" lon="4.23117">
        <ele>144.39999389648</ele>
        <time>2020-03-10T10:49:52.000Z</time>
      </trkpt>
      <trkpt lat="44.18809" lon="4.23108">
        <ele>144.60000610352</ele>
        <time>2020-03-10T10:49:54.000Z</time>
      </trkpt>
      <trkpt lat="44.18809" lon="4.23102">
        <ele>144.60000610352</ele>
        <time>2020-03-10T10:49:55.000Z</time>
      </trkpt>
      <trkpt lat="44.18809" lon="4.23093">
        <ele>144.80000305176</ele>
        <time>2020-03-10T10:49:57.000Z</time>
      </trkpt>
      <trkpt lat="44.18808" lon="4.23072">
        <ele>145.39999389648</ele>
        <time>2020-03-10T10:50:01.000Z</time>
      </trkpt>
      <trkpt lat="44.18808" lon="4.23066">
        <ele>145.39999389648</ele>
        <time>2020-03-10T10:50:03.000Z</time>
      </trkpt>
      <trkpt lat="44.18806" lon="4.23066">
        <ele>145.19999694824</ele>
        <time>2020-03-10T10:50:05.000Z</time>
      </trkpt>
      <trkpt lat="44.18806" lon="4.23068">
        <ele>145</ele>
        <time>2020-03-10T10:50:06.000Z</time>
      </trkpt>
      <trkpt lat="44.18801" lon="4.23079">
        <ele>144</ele>
        <time>2020-03-10T10:50:09.000Z</time>
      </trkpt>
      <trkpt lat="44.18798" lon="4.23082">
        <ele>143.60000610352</ele>
        <time>2020-03-10T10:50:10.000Z</time>
      </trkpt>
      <trkpt lat="44.18796" lon="4.23087">
        <ele>143.19999694824</ele>
        <time>2020-03-10T10:50:11.000Z</time>
      </trkpt>
      <trkpt lat="44.18799" lon="4.2309">
        <ele>143.60000610352</ele>
        <time>2020-03-10T10:50:13.000Z</time>
      </trkpt>
      <trkpt lat="44.18803" lon="4.23096">
        <ele>144</ele>
        <time>2020-03-10T10:50:15.000Z</time>
      </trkpt>
      <trkpt lat="44.18802" lon="4.23098">
        <ele>143.80000305176</ele>
        <time>2020-03-10T10:50:16.000Z</time>
      </trkpt>
      <trkpt lat="44.188" lon="4.23098">
        <ele>143.60000610352</ele>
        <time>2020-03-10T10:50:17.000Z</time>
      </trkpt>
      <trkpt lat="44.18797" lon="4.23098">
        <ele>143.19999694824</ele>
        <time>2020-03-10T10:50:18.000Z</time>
      </trkpt>
      <trkpt lat="44.1879" lon="4.23093">
        <ele>142.19999694824</ele>
        <time>2020-03-10T10:50:20.000Z</time>
      </trkpt>
      <trkpt lat="44.18786" lon="4.23081">
        <ele>141.80000305176</ele>
        <time>2020-03-10T10:50:23.000Z</time>
      </trkpt>
      <trkpt lat="44.18784" lon="4.23082">
        <ele>141.60000610352</ele>
        <time>2020-03-10T10:50:24.000Z</time>
      </trkpt>
      <trkpt lat="44.18782" lon="4.23094">
        <ele>141</ele>
        <time>2020-03-10T10:50:27.000Z</time>
      </trkpt>
      <trkpt lat="44.18784" lon="4.23099">
        <ele>141.19999694824</ele>
        <time>2020-03-10T10:50:28.000Z</time>
      </trkpt>
      <trkpt lat="44.18796" lon="4.23114">
        <ele>142.39999389648</ele>
        <time>2020-03-10T10:50:32.000Z</time>
      </trkpt>
      <trkpt lat="44.18801" lon="4.23121">
        <ele>142.80000305176</ele>
        <time>2020-03-10T10:50:34.000Z</time>
      </trkpt>
      <trkpt lat="44.18804" lon="4.23129">
        <ele>143</ele>
        <time>2020-03-10T10:50:36.000Z</time>
      </trkpt>
      <trkpt lat="44.18804" lon="4.23132">
        <ele>142.80000305176</ele>
        <time>2020-03-10T10:50:37.000Z</time>
      </trkpt>
      <trkpt lat="44.18803" lon="4.23134">
        <ele>142.39999389648</ele>
        <time>2020-03-10T10:50:38.000Z</time>
      </trkpt>
      <trkpt lat="44.18795" lon="4.2313">
        <ele>141.60000610352</ele>
        <time>2020-03-10T10:50:42.000Z</time>
      </trkpt>
      <trkpt lat="44.1878" lon="4.23125">
        <ele>139.80000305176</ele>
        <time>2020-03-10T10:50:49.000Z</time>
      </trkpt>
      <trkpt lat="44.18779" lon="4.23132">
        <ele>139.39999389648</ele>
        <time>2020-03-10T10:50:52.000Z</time>
      </trkpt>
      <trkpt lat="44.18783" lon="4.23138">
        <ele>139.80000305176</ele>
        <time>2020-03-10T10:50:54.000Z</time>
      </trkpt>
      <trkpt lat="44.1879" lon="4.23147">
        <ele>140.19999694824</ele>
        <time>2020-03-10T10:50:57.000Z</time>
      </trkpt>
      <trkpt lat="44.18794" lon="4.23161">
        <ele>140.39999389648</ele>
        <time>2020-03-10T10:51:00.000Z</time>
      </trkpt>
      <trkpt lat="44.18789" lon="4.23167">
        <ele>139.39999389648</ele>
        <time>2020-03-10T10:51:02.000Z</time>
      </trkpt>
      <trkpt lat="44.18777" lon="4.23167">
        <ele>138</ele>
        <time>2020-03-10T10:51:05.000Z</time>
      </trkpt>
      <trkpt lat="44.18773" lon="4.23166">
        <ele>137.80000305176</ele>
        <time>2020-03-10T10:51:06.000Z</time>
      </trkpt>
      <trkpt lat="44.18761" lon="4.23162">
        <ele>137.39999389648</ele>
        <time>2020-03-10T10:51:10.000Z</time>
      </trkpt>
      <trkpt lat="44.18757" lon="4.23159">
        <ele>137.19999694824</ele>
        <time>2020-03-10T10:51:12.000Z</time>
      </trkpt>
      <trkpt lat="44.18753" lon="4.23153">
        <ele>137.39999389648</ele>
        <time>2020-03-10T10:51:15.000Z</time>
      </trkpt>
      <trkpt lat="44.18754" lon="4.23141">
        <ele>137.80000305176</ele>
        <time>2020-03-10T10:51:19.000Z</time>
      </trkpt>
      <trkpt lat="44.18757" lon="4.23132">
        <ele>138.19999694824</ele>
        <time>2020-03-10T10:51:21.000Z</time>
      </trkpt>
      <trkpt lat="44.18762" lon="4.23121">
        <ele>138.80000305176</ele>
        <time>2020-03-10T10:51:24.000Z</time>
      </trkpt>
      <trkpt lat="44.18774" lon="4.23092">
        <ele>140.39999389648</ele>
        <time>2020-03-10T10:51:31.000Z</time>
      </trkpt>
      <trkpt lat="44.18775" lon="4.23088">
        <ele>140.39999389648</ele>
        <time>2020-03-10T10:51:32.000Z</time>
      </trkpt>
      <trkpt lat="44.18782" lon="4.23067">
        <ele>141.60000610352</ele>
        <time>2020-03-10T10:51:37.000Z</time>
      </trkpt>
      <trkpt lat="44.18784" lon="4.2306">
        <ele>142.19999694824</ele>
        <time>2020-03-10T10:51:39.000Z</time>
      </trkpt>
      <trkpt lat="44.18789" lon="4.2305">
        <ele>143</ele>
        <time>2020-03-10T10:51:42.000Z</time>
      </trkpt>
      <trkpt lat="44.18795" lon="4.2303">
        <ele>144.19999694824</ele>
        <time>2020-03-10T10:51:47.000Z</time>
      </trkpt>
      <trkpt lat="44.188" lon="4.23024">
        <ele>145</ele>
        <time>2020-03-10T10:51:49.000Z</time>
      </trkpt>
      <trkpt lat="44.18802" lon="4.23024">
        <ele>145.19999694824</ele>
        <time>2020-03-10T10:51:50.000Z</time>
      </trkpt>
      <trkpt lat="44.18804" lon="4.2303">
        <ele>145.39999389648</ele>
        <time>2020-03-10T10:51:52.000Z</time>
      </trkpt>
      <trkpt lat="44.18806" lon="4.23037">
        <ele>145.60000610352</ele>
        <time>2020-03-10T10:51:54.000Z</time>
      </trkpt>
      <trkpt lat="44.18806" lon="4.23041">
        <ele>145.60000610352</ele>
        <time>2020-03-10T10:51:55.000Z</time>
      </trkpt>
      <trkpt lat="44.18811" lon="4.23054">
        <ele>146</ele>
        <time>2020-03-10T10:51:58.000Z</time>
      </trkpt>
      <trkpt lat="44.18815" lon="4.23055">
        <ele>146.60000610352</ele>
        <time>2020-03-10T10:51:59.000Z</time>
      </trkpt>
      <trkpt lat="44.18822" lon="4.23048">
        <ele>147.60000610352</ele>
        <time>2020-03-10T10:52:02.000Z</time>
      </trkpt>
      <trkpt lat="44.18822" lon="4.2304">
        <ele>147.60000610352</ele>
        <time>2020-03-10T10:52:04.000Z</time>
      </trkpt>
      <trkpt lat="44.18822" lon="4.23026">
        <ele>147.80000305176</ele>
        <time>2020-03-10T10:52:08.000Z</time>
      </trkpt>
      <trkpt lat="44.18821" lon="4.23022">
        <ele>147.80000305176</ele>
        <time>2020-03-10T10:52:09.000Z</time>
      </trkpt>
      <trkpt lat="44.1882" lon="4.23016">
        <ele>147.80000305176</ele>
        <time>2020-03-10T10:52:11.000Z</time>
      </trkpt>
      <trkpt lat="44.18819" lon="4.23005">
        <ele>147.60000610352</ele>
        <time>2020-03-10T10:52:14.000Z</time>
      </trkpt>
      <trkpt lat="44.18818" lon="4.22995">
        <ele>147.60000610352</ele>
        <time>2020-03-10T10:52:17.000Z</time>
      </trkpt>
      <trkpt lat="44.18818" lon="4.22991">
        <ele>147.80000305176</ele>
        <time>2020-03-10T10:52:18.000Z</time>
      </trkpt>
      <trkpt lat="44.18819" lon="4.22988">
        <ele>147.80000305176</ele>
        <time>2020-03-10T10:52:19.000Z</time>
      </trkpt>
      <trkpt lat="44.18822" lon="4.22987">
        <ele>148.19999694824</ele>
        <time>2020-03-10T10:52:20.000Z</time>
      </trkpt>
      <trkpt lat="44.18824" lon="4.22989">
        <ele>148.60000610352</ele>
        <time>2020-03-10T10:52:21.000Z</time>
      </trkpt>
      <trkpt lat="44.18825" lon="4.22995">
        <ele>148.60000610352</ele>
        <time>2020-03-10T10:52:23.000Z</time>
      </trkpt>
      <trkpt lat="44.18828" lon="4.23006">
        <ele>148.80000305176</ele>
        <time>2020-03-10T10:52:26.000Z</time>
      </trkpt>
      <trkpt lat="44.18831" lon="4.23013">
        <ele>149.19999694824</ele>
        <time>2020-03-10T10:52:28.000Z</time>
      </trkpt>
      <trkpt lat="44.18838" lon="4.23027">
        <ele>150</ele>
        <time>2020-03-10T10:52:32.000Z</time>
      </trkpt>
      <trkpt lat="44.1884" lon="4.2303">
        <ele>150.19999694824</ele>
        <time>2020-03-10T10:52:34.000Z</time>
      </trkpt>
      <trkpt lat="44.18843" lon="4.23037">
        <ele>150.39999389648</ele>
        <time>2020-03-10T10:52:37.000Z</time>
      </trkpt>
      <trkpt lat="44.18846" lon="4.23043">
        <ele>150.80000305176</ele>
        <time>2020-03-10T10:52:39.000Z</time>
      </trkpt>
      <trkpt lat="44.18848" lon="4.23045">
        <ele>151</ele>
        <time>2020-03-10T10:52:40.000Z</time>
      </trkpt>
      <trkpt lat="44.18853" lon="4.23053">
        <ele>151.60000610352</ele>
        <time>2020-03-10T10:52:43.000Z</time>
      </trkpt>
      <trkpt lat="44.18855" lon="4.23054">
        <ele>151.80000305176</ele>
        <time>2020-03-10T10:52:44.000Z</time>
      </trkpt>
      <trkpt lat="44.18857" lon="4.23051">
        <ele>152.19999694824</ele>
        <time>2020-03-10T10:52:46.000Z</time>
      </trkpt>
      <trkpt lat="44.18858" lon="4.23045">
        <ele>152.39999389648</ele>
        <time>2020-03-10T10:52:48.000Z</time>
      </trkpt>
      <trkpt lat="44.18859" lon="4.23042">
        <ele>152.60000610352</ele>
        <time>2020-03-10T10:52:49.000Z</time>
      </trkpt>
      <trkpt lat="44.18859" lon="4.2304">
        <ele>152.60000610352</ele>
        <time>2020-03-10T10:52:50.000Z</time>
      </trkpt>
      <trkpt lat="44.1886" lon="4.23032">
        <ele>152.80000305176</ele>
        <time>2020-03-10T10:52:53.000Z</time>
      </trkpt>
      <trkpt lat="44.18861" lon="4.23028">
        <ele>153</ele>
        <time>2020-03-10T10:53:00.000Z</time>
      </trkpt>
      <trkpt lat="44.18865" lon="4.23047">
        <ele>153.80000305176</ele>
        <time>2020-03-10T10:53:05.000Z</time>
      </trkpt>
      <trkpt lat="44.18866" lon="4.23051">
        <ele>154</ele>
        <time>2020-03-10T10:53:06.000Z</time>
      </trkpt>
      <trkpt lat="44.18869" lon="4.23063">
        <ele>154.80000305176</ele>
        <time>2020-03-10T10:53:10.000Z</time>
      </trkpt>
      <trkpt lat="44.18873" lon="4.23055">
        <ele>155.80000305176</ele>
        <time>2020-03-10T10:53:14.000Z</time>
      </trkpt>
      <trkpt lat="44.18873" lon="4.23052">
        <ele>156</ele>
        <time>2020-03-10T10:53:15.000Z</time>
      </trkpt>
      <trkpt lat="44.18875" lon="4.2304">
        <ele>156.80000305176</ele>
        <time>2020-03-10T10:53:19.000Z</time>
      </trkpt>
      <trkpt lat="44.18876" lon="4.23038">
        <ele>157.19999694824</ele>
        <time>2020-03-10T10:53:20.000Z</time>
      </trkpt>
      <trkpt lat="44.18877" lon="4.23032">
        <ele>157.39999389648</ele>
        <time>2020-03-10T10:53:22.000Z</time>
      </trkpt>
      <trkpt lat="44.18876" lon="4.23028">
        <ele>157.19999694824</ele>
        <time>2020-03-10T10:53:23.000Z</time>
      </trkpt>
      <trkpt lat="44.18875" lon="4.23018">
        <ele>157.19999694824</ele>
        <time>2020-03-10T10:53:25.000Z</time>
      </trkpt>
      <trkpt lat="44.18874" lon="4.23011">
        <ele>157.19999694824</ele>
        <time>2020-03-10T10:53:27.000Z</time>
      </trkpt>
      <trkpt lat="44.18872" lon="4.22998">
        <ele>156.80000305176</ele>
        <time>2020-03-10T10:53:30.000Z</time>
      </trkpt>
      <trkpt lat="44.1887" lon="4.22981">
        <ele>156.60000610352</ele>
        <time>2020-03-10T10:53:34.000Z</time>
      </trkpt>
      <trkpt lat="44.18871" lon="4.22979">
        <ele>157</ele>
        <time>2020-03-10T10:53:35.000Z</time>
      </trkpt>
      <trkpt lat="44.18877" lon="4.22981">
        <ele>158.60000610352</ele>
        <time>2020-03-10T10:53:39.000Z</time>
      </trkpt>
      <trkpt lat="44.18882" lon="4.22987">
        <ele>159.80000305176</ele>
        <time>2020-03-10T10:53:43.000Z</time>
      </trkpt>
      <trkpt lat="44.18882" lon="4.22989">
        <ele>159.80000305176</ele>
        <time>2020-03-10T10:53:44.000Z</time>
      </trkpt>
      <trkpt lat="44.18881" lon="4.22992">
        <ele>159.60000610352</ele>
        <time>2020-03-10T10:53:45.000Z</time>
      </trkpt>
      <trkpt lat="44.18883" lon="4.22997">
        <ele>160</ele>
        <time>2020-03-10T10:53:48.000Z</time>
      </trkpt>
      <trkpt lat="44.18888" lon="4.23005">
        <ele>161.39999389648</ele>
        <time>2020-03-10T10:53:52.000Z</time>
      </trkpt>
      <trkpt lat="44.1889" lon="4.23012">
        <ele>161.60000610352</ele>
        <time>2020-03-10T10:53:54.000Z</time>
      </trkpt>
      <trkpt lat="44.18892" lon="4.23024">
        <ele>161.80000305176</ele>
        <time>2020-03-10T10:53:58.000Z</time>
      </trkpt>
      <trkpt lat="44.18894" lon="4.23025">
        <ele>162.39999389648</ele>
        <time>2020-03-10T10:54:00.000Z</time>
      </trkpt>
      <trkpt lat="44.18894" lon="4.23023">
        <ele>162.60000610352</ele>
        <time>2020-03-10T10:54:01.000Z</time>
      </trkpt>
      <trkpt lat="44.18897" lon="4.23019">
        <ele>163.39999389648</ele>
        <time>2020-03-10T10:54:04.000Z</time>
      </trkpt>
      <trkpt lat="44.18898" lon="4.23021">
        <ele>163.60000610352</ele>
        <time>2020-03-10T10:54:05.000Z</time>
      </trkpt>
      <trkpt lat="44.18898" lon="4.23025">
        <ele>163.80000305176</ele>
        <time>2020-03-10T10:54:07.000Z</time>
      </trkpt>
      <trkpt lat="44.189" lon="4.23023">
        <ele>164.19999694824</ele>
        <time>2020-03-10T10:54:10.000Z</time>
      </trkpt>
      <trkpt lat="44.18899" lon="4.23014">
        <ele>164.19999694824</ele>
        <time>2020-03-10T10:54:13.000Z</time>
      </trkpt>
      <trkpt lat="44.18898" lon="4.23009">
        <ele>164</ele>
        <time>2020-03-10T10:54:15.000Z</time>
      </trkpt>
      <trkpt lat="44.18899" lon="4.23005">
        <ele>164.39999389648</ele>
        <time>2020-03-10T10:54:17.000Z</time>
      </trkpt>
      <trkpt lat="44.189" lon="4.22996">
        <ele>165</ele>
        <time>2020-03-10T10:54:20.000Z</time>
      </trkpt>
      <trkpt lat="44.18899" lon="4.22992">
        <ele>164.60000610352</ele>
        <time>2020-03-10T10:54:21.000Z</time>
      </trkpt>
      <trkpt lat="44.18899" lon="4.2299">
        <ele>164.60000610352</ele>
        <time>2020-03-10T10:54:22.000Z</time>
      </trkpt>
      <trkpt lat="44.18899" lon="4.22984">
        <ele>165</ele>
        <time>2020-03-10T10:54:24.000Z</time>
      </trkpt>
      <trkpt lat="44.18898" lon="4.22975">
        <ele>165</ele>
        <time>2020-03-10T10:54:27.000Z</time>
      </trkpt>
      <trkpt lat="44.18898" lon="4.22967">
        <ele>165</ele>
        <time>2020-03-10T10:54:29.000Z</time>
      </trkpt>
      <trkpt lat="44.18898" lon="4.2295">
        <ele>165.80000305176</ele>
        <time>2020-03-10T10:54:33.000Z</time>
      </trkpt>
      <trkpt lat="44.189" lon="4.22933">
        <ele>167.60000610352</ele>
        <time>2020-03-10T10:54:38.000Z</time>
      </trkpt>
      <trkpt lat="44.18899" lon="4.22926">
        <ele>168</ele>
        <time>2020-03-10T10:54:40.000Z</time>
      </trkpt>
      <trkpt lat="44.18899" lon="4.22922">
        <ele>168.39999389648</ele>
        <time>2020-03-10T10:54:41.000Z</time>
      </trkpt>
      <trkpt lat="44.18899" lon="4.22916">
        <ele>169.19999694824</ele>
        <time>2020-03-10T10:54:43.000Z</time>
      </trkpt>
      <trkpt lat="44.18899" lon="4.22908">
        <ele>169.80000305176</ele>
        <time>2020-03-10T10:54:46.000Z</time>
      </trkpt>
      <trkpt lat="44.18898" lon="4.22905">
        <ele>169.80000305176</ele>
        <time>2020-03-10T10:54:47.000Z</time>
      </trkpt>
      <trkpt lat="44.18897" lon="4.22902">
        <ele>170</ele>
        <time>2020-03-10T10:54:48.000Z</time>
      </trkpt>
      <trkpt lat="44.18896" lon="4.22895">
        <ele>170</ele>
        <time>2020-03-10T10:54:50.000Z</time>
      </trkpt>
      <trkpt lat="44.18896" lon="4.22885">
        <ele>170</ele>
        <time>2020-03-10T10:54:53.000Z</time>
      </trkpt>
      <trkpt lat="44.18896" lon="4.22875">
        <ele>169.80000305176</ele>
        <time>2020-03-10T10:54:56.000Z</time>
      </trkpt>
      <trkpt lat="44.18893" lon="4.22865">
        <ele>169.19999694824</ele>
        <time>2020-03-10T10:54:58.000Z</time>
      </trkpt>
      <trkpt lat="44.18893" lon="4.22839">
        <ele>171.60000610352</ele>
        <time>2020-03-10T10:55:03.000Z</time>
      </trkpt>
      <trkpt lat="44.18895" lon="4.22836">
        <ele>172.19999694824</ele>
        <time>2020-03-10T10:55:04.000Z</time>
      </trkpt>
      <trkpt lat="44.18898" lon="4.22827">
        <ele>173.80000305176</ele>
        <time>2020-03-10T10:55:07.000Z</time>
      </trkpt>
      <trkpt lat="44.18896" lon="4.22819">
        <ele>174.39999389648</ele>
        <time>2020-03-10T10:55:10.000Z</time>
      </trkpt>
      <trkpt lat="44.18893" lon="4.22812">
        <ele>174.39999389648</ele>
        <time>2020-03-10T10:55:12.000Z</time>
      </trkpt>
      <trkpt lat="44.18883" lon="4.22794">
        <ele>173.80000305176</ele>
        <time>2020-03-10T10:55:18.000Z</time>
      </trkpt>
      <trkpt lat="44.18878" lon="4.22782">
        <ele>173.39999389648</ele>
        <time>2020-03-10T10:55:22.000Z</time>
      </trkpt>
      <trkpt lat="44.18879" lon="4.22779">
        <ele>173.39999389648</ele>
        <time>2020-03-10T10:55:23.000Z</time>
      </trkpt>
      <trkpt lat="44.18883" lon="4.22761">
        <ele>174.60000610352</ele>
        <time>2020-03-10T10:55:28.000Z</time>
      </trkpt>
      <trkpt lat="44.18883" lon="4.22753">
        <ele>175</ele>
        <time>2020-03-10T10:55:30.000Z</time>
      </trkpt>
      <trkpt lat="44.18882" lon="4.22748">
        <ele>175.19999694824</ele>
        <time>2020-03-10T10:55:32.000Z</time>
      </trkpt>
      <trkpt lat="44.18879" lon="4.22741">
        <ele>175.19999694824</ele>
        <time>2020-03-10T10:55:34.000Z</time>
      </trkpt>
      <trkpt lat="44.18877" lon="4.22737">
        <ele>175.39999389648</ele>
        <time>2020-03-10T10:55:35.000Z</time>
      </trkpt>
      <trkpt lat="44.18871" lon="4.22722">
        <ele>175.60000610352</ele>
        <time>2020-03-10T10:55:39.000Z</time>
      </trkpt>
      <trkpt lat="44.1887" lon="4.22714">
        <ele>175.80000305176</ele>
        <time>2020-03-10T10:55:41.000Z</time>
      </trkpt>
      <trkpt lat="44.18869" lon="4.2271">
        <ele>176</ele>
        <time>2020-03-10T10:55:43.000Z</time>
      </trkpt>
      <trkpt lat="44.18864" lon="4.22707">
        <ele>175.60000610352</ele>
        <time>2020-03-10T10:55:45.000Z</time>
      </trkpt>
      <trkpt lat="44.18862" lon="4.22705">
        <ele>175.60000610352</ele>
        <time>2020-03-10T10:55:46.000Z</time>
      </trkpt>
      <trkpt lat="44.18861" lon="4.22703">
        <ele>175.60000610352</ele>
        <time>2020-03-10T10:55:47.000Z</time>
      </trkpt>
      <trkpt lat="44.18862" lon="4.22683">
        <ele>175.80000305176</ele>
        <time>2020-03-10T10:55:52.000Z</time>
      </trkpt>
      <trkpt lat="44.18862" lon="4.22667">
        <ele>175.39999389648</ele>
        <time>2020-03-10T10:55:55.000Z</time>
      </trkpt>
      <trkpt lat="44.1886" lon="4.2266">
        <ele>175</ele>
        <time>2020-03-10T10:55:56.000Z</time>
      </trkpt>
      <trkpt lat="44.18858" lon="4.22653">
        <ele>174.80000305176</ele>
        <time>2020-03-10T10:55:57.000Z</time>
      </trkpt>
      <trkpt lat="44.18846" lon="4.22632">
        <ele>173.39999389648</ele>
        <time>2020-03-10T10:56:00.000Z</time>
      </trkpt>
      <trkpt lat="44.18838" lon="4.22616">
        <ele>172.39999389648</ele>
        <time>2020-03-10T10:56:02.000Z</time>
      </trkpt>
      <trkpt lat="44.18831" lon="4.22598">
        <ele>172.19999694824</ele>
        <time>2020-03-10T10:56:04.000Z</time>
      </trkpt>
      <trkpt lat="44.18824" lon="4.22582">
        <ele>172</ele>
        <time>2020-03-10T10:56:06.000Z</time>
      </trkpt>
      <trkpt lat="44.18817" lon="4.22568">
        <ele>171.80000305176</ele>
        <time>2020-03-10T10:56:08.000Z</time>
      </trkpt>
      <trkpt lat="44.18808" lon="4.2255">
        <ele>171.39999389648</ele>
        <time>2020-03-10T10:56:11.000Z</time>
      </trkpt>
      <trkpt lat="44.18803" lon="4.22532">
        <ele>171.19999694824</ele>
        <time>2020-03-10T10:56:15.000Z</time>
      </trkpt>
    </trkseg>
  </trk>
</gpx>